Observation data for Adrian on 02/12/2018      Previous  Date  Next       Current Mesonet Observations  Soil Data  Daily Summary Page  Observations in Plain Language
KAD1 120600Z 18013KT M06/M16 A3016 RMK A01 T10571161  RH  044%=      5-min Rain = 0
KAD1 120601Z 18013KT M06/M16 A3016 RMK A01 T10571161  RH  044%=      5-min Rain = 0
KAD1 120602Z 18013KT M06/M16 A3016 RMK A01 T10571161  RH  044%=      5-min Rain = 0
KAD1 120603Z 18013KT M06/M16 A3016 RMK A01 T10561161  RH  044%=      5-min Rain = 0
KAD1 120604Z 18013KT M06/M16 A3017 RMK A01 T10571161  RH  043%=      5-min Rain = 0
KAD1 120605Z 18013KT M06/M16 A3017 RMK A01 T10571161  RH  044%=      5-min Rain = 0
KAD1 120606Z 19013KT M06/M16 A3017 RMK A01 T10581162  RH  044%=      5-min Rain = 0
KAD1 120607Z 19012KT M06/M16 A3017 RMK A01 T10591162  RH  044%=      5-min Rain = 0
KAD1 120608Z 19012KT M06/M16 A3017 RMK A01 T10591162  RH  044%=      5-min Rain = 0
KAD1 120609Z 19012KT M06/M16 A3017 RMK A01 T10601161  RH  044%=      5-min Rain = 0
KAD1 120610Z 19012KT M06/M16 A3017 RMK A01 T10601160  RH  045%=      5-min Rain = 0
KAD1 120611Z 19013KT M06/M16 A3017 RMK A01 T10591159  RH  045%=      5-min Rain = 0
KAD1 120612Z 19013KT M06/M16 A3017 RMK A01 T10581156  RH  046%=      5-min Rain = 0
KAD1 120613Z 19013KT M06/M15 A3017 RMK A01 T10561154  RH  046%=      5-min Rain = 0
KAD1 120614Z 19012KT M06/M15 A3017 RMK A01 T10551152  RH  046%=      5-min Rain = 0
KAD1 120615Z 19012KT M05/M15 A3017 RMK A01 T10531150  RH  047%=      5-min Rain = 0
KAD1 120616Z 19013KT M05/M15 A3017 RMK A01 T10511148  RH  047%=      5-min Rain = 0
KAD1 120617Z 19013KT M05/M15 A3017 RMK A01 T10481145  RH  047%=      5-min Rain = 0
KAD1 120618Z 19012KT M05/M14 A3017 RMK A01 T10451141  RH  047%=      5-min Rain = 0
KAD1 120619Z 19013KT M04/M14 A3017 RMK A01 T10421140  RH  046%=      5-min Rain = 0
KAD1 120620Z 19013KT M04/M14 A3017 RMK A01 T10401139  RH  046%=      5-min Rain = 0
KAD1 120621Z 19013KT M04/M14 A3017 RMK A01 T10381138  RH  046%=      5-min Rain = 0
KAD1 120622Z 20012KT M04/M14 A3017 RMK A01 T10361137  RH  045%=      5-min Rain = 0
KAD1 120623Z 20013KT M04/M14 A3017 RMK A01 T10351137  RH  045%=      5-min Rain = 0
KAD1 120624Z 20013KT M03/M14 A3017 RMK A01 T10321135  RH  045%=      5-min Rain = 0
KAD1 120625Z 19014KT M03/M13 A3017 RMK A01 T10301134  RH  045%=      5-min Rain = 0
KAD1 120626Z 20013KT M03/M13 A3017 RMK A01 T10281134  RH  044%=      5-min Rain = 0
KAD1 120627Z 20014KT M03/M14 A3017 RMK A01 T10281135  RH  044%=      5-min Rain = 0
KAD1 120628Z 20014KT M03/M14 A3017 RMK A01 T10291136  RH  044%=      5-min Rain = 0
KAD1 120629Z 20014KT M03/M14 A3017 RMK A01 T10301136  RH  044%=      5-min Rain = 0
KAD1 120630Z 20013KT M03/M14 A3017 RMK A01 T10301136  RH  044%=      5-min Rain = 0
KAD1 120631Z 20014KT M03/M14 A3017 RMK A01 T10301136  RH  044%=      5-min Rain = 0
KAD1 120632Z 20014KT M03/M14 A3017 RMK A01 T10301135  RH  044%=      5-min Rain = 0
KAD1 120633Z 20013KT M03/M14 A3017 RMK A01 T10301136  RH  044%=      5-min Rain = 0
KAD1 120634Z 19013KT M03/M14 A3017 RMK A01 T10301136  RH  044%=      5-min Rain = 0
KAD1 120635Z 19014KT M03/M14 A3017 RMK A01 T10311137  RH  044%=      5-min Rain = 0
KAD1 120636Z 19013KT M03/M14 A3017 RMK A01 T10331138  RH  044%=      5-min Rain = 0
KAD1 120637Z 19013KT M03/M14 A3017 RMK A01 T10341138  RH  044%=      5-min Rain = 0
KAD1 120638Z 19014KT M04/M14 A3017 RMK A01 T10361139  RH  045%=      5-min Rain = 0
KAD1 120639Z 19013KT M04/M14 A3017 RMK A01 T10361138  RH  045%=      5-min Rain = 0
KAD1 120640Z 19013KT M04/M14 A3017 RMK A01 T10361138  RH  045%=      5-min Rain = 0
KAD1 120641Z 19013KT M04/M14 A3017 RMK A01 T10361138  RH  045%=      5-min Rain = 0
KAD1 120642Z 20014KT M04/M14 A3017 RMK A01 T10361138  RH  045%=      5-min Rain = 0
KAD1 120643Z 19014KT M03/M14 A3017 RMK A01 T10341136  RH  045%=      5-min Rain = 0
KAD1 120644Z 19015KT M03/M14 A3017 RMK A01 T10331135  RH  045%=      5-min Rain = 0
KAD1 120645Z 19014KT M03/M14 A3017 RMK A01 T10321135  RH  045%=      5-min Rain = 0
KAD1 120646Z 19015KT M03/M14 A3017 RMK A01 T10321136  RH  044%=      5-min Rain = 0
KAD1 120647Z 19014KT M03/M14 A3017 RMK A01 T10321137  RH  044%=      5-min Rain = 0
KAD1 120648Z 19013KT M03/M14 A3017 RMK A01 T10341138  RH  044%=      5-min Rain = 0
KAD1 120649Z 18013KT M04/M14 A3017 RMK A01 T10351139  RH  045%=      5-min Rain = 0
KAD1 120650Z 18013KT M04/M14 A3017 RMK A01 T10401143  RH  045%=      5-min Rain = 0
KAD1 120651Z 18013KT M04/M15 A3017 RMK A01 T10441146  RH  045%=      5-min Rain = 0
KAD1 120652Z 19013KT M05/M15 A3017 RMK A01 T10481147  RH  046%=      5-min Rain = 0
KAD1 120653Z 18013KT M05/M15 A3017 RMK A01 T10501147  RH  047%=      5-min Rain = 0
KAD1 120654Z 19013KT M05/M15 A3017 RMK A01 T10521147  RH  047%=      5-min Rain = 0
KAD1 120655Z 19013KT M05/M15 A3017 RMK A01 T10531148  RH  047%=      5-min Rain = 0
KAD1 120656Z 19013KT M06/M15 A3017 RMK A01 T10551148  RH  048%=      5-min Rain = 0
KAD1 120657Z 19013KT M06/M15 A3017 RMK A01 T10561148  RH  048%=      5-min Rain = 0
KAD1 120658Z 19013KT M06/M15 A3017 RMK A01 T10561147  RH  049%=      5-min Rain = 0
KAD1 120659Z 19013KT M06/M15 A3017 RMK A01 T10561146  RH  049%=      5-min Rain = 0
KAD1 120700Z 19013KT M06/M15 A3017 RMK A01 T10561146  RH  049%=      5-min Rain = 0
KAD1 120701Z 18013KT M06/M15 A3017 RMK A01 T10571146  RH  049%=      5-min Rain = 0
KAD1 120702Z 19013KT M06/M15 A3017 RMK A01 T10581147  RH  049%=      5-min Rain = 0
KAD1 120703Z 18013KT M06/M15 A3016 RMK A01 T10591148  RH  050%=      5-min Rain = 0
KAD1 120704Z 18013KT M06/M15 A3017 RMK A01 T10591147  RH  050%=      5-min Rain = 0
KAD1 120705Z 18013KT M06/M15 A3017 RMK A01 T10601148  RH  050%=      5-min Rain = 0
KAD1 120706Z 18012KT M06/M15 A3016 RMK A01 T10611148  RH  050%=      5-min Rain = 0
KAD1 120707Z 18012KT M06/M15 A3017 RMK A01 T10621149  RH  050%=      5-min Rain = 0
KAD1 120708Z 18013KT M06/M15 A3017 RMK A01 T10631149  RH  050%=      5-min Rain = 0
KAD1 120709Z 19013KT M07/M15 A3017 RMK A01 T10651150  RH  051%=      5-min Rain = 0
KAD1 120710Z 19014KT M07/M15 A3017 RMK A01 T10651150  RH  051%=      5-min Rain = 0
KAD1 120711Z 18014KT M07/M15 A3017 RMK A01 T10651149  RH  051%=      5-min Rain = 0
KAD1 120712Z 18013KT M06/M15 A3017 RMK A01 T10631147  RH  051%=      5-min Rain = 0
KAD1 120713Z 18013KT M06/M15 A3016 RMK A01 T10621147  RH  051%=      5-min Rain = 0
KAD1 120714Z 18012KT M06/M15 A3016 RMK A01 T10621146  RH  051%=      5-min Rain = 0
KAD1 120715Z 18013KT M06/M15 A3016 RMK A01 T10621147  RH  051%=      5-min Rain = 0
KAD1 120716Z 18013KT M06/M15 A3016 RMK A01 T10631148  RH  051%=      5-min Rain = 0
KAD1 120717Z 18013KT M06/M15 A3016 RMK A01 T10631147  RH  051%=      5-min Rain = 0
KAD1 120718Z 18012KT M06/M15 A3016 RMK A01 T10631147  RH  051%=      5-min Rain = 0
KAD1 120719Z 18012KT M06/M15 A3016 RMK A01 T10631147  RH  051%=      5-min Rain = 0
KAD1 120720Z 18013KT M06/M15 A3016 RMK A01 T10641148  RH  051%=      5-min Rain = 0
KAD1 120721Z 19014KT M06/M15 A3016 RMK A01 T10641148  RH  051%=      5-min Rain = 0
KAD1 120722Z 19013KT M06/M15 A3016 RMK A01 T10611145  RH  051%=      5-min Rain = 0
KAD1 120723Z 18013KT M06/M14 A3016 RMK A01 T10591143  RH  051%=      5-min Rain = 0
KAD1 120724Z 18013KT M06/M14 A3016 RMK A01 T10571143  RH  051%=      5-min Rain = 0
KAD1 120725Z 18013KT M06/M14 A3016 RMK A01 T10571144  RH  050%=      5-min Rain = 0
KAD1 120726Z 19013KT M06/M15 A3016 RMK A01 T10581145  RH  050%=      5-min Rain = 0
KAD1 120727Z 19013KT M06/M15 A3016 RMK A01 T10591146  RH  050%=      5-min Rain = 0
KAD1 120728Z 19013KT M06/M15 A3016 RMK A01 T10591146  RH  050%=      5-min Rain = 0
KAD1 120729Z 19012KT M06/M15 A3016 RMK A01 T10601145  RH  051%=      5-min Rain = 0
KAD1 120730Z 19012KT M06/M15 A3016 RMK A01 T10601145  RH  051%=      5-min Rain = 0
KAD1 120731Z 19012KT M06/M14 A3016 RMK A01 T10601144  RH  051%=      5-min Rain = 0
KAD1 120732Z 19013KT M06/M14 A3016 RMK A01 T10601144  RH  051%=      5-min Rain = 0
KAD1 120733Z 19013KT M06/M14 A3017 RMK A01 T10601144  RH  052%=      5-min Rain = 0
KAD1 120734Z 19013KT M06/M14 A3017 RMK A01 T10611144  RH  052%=      5-min Rain = 0
KAD1 120735Z 19013KT M06/M14 A3017 RMK A01 T10611143  RH  052%=      5-min Rain = 0
KAD1 120736Z 19012KT M06/M14 A3017 RMK A01 T10611143  RH  052%=      5-min Rain = 0
KAD1 120737Z 19013KT M06/M14 A3017 RMK A01 T10601143  RH  052%=      5-min Rain = 0
KAD1 120738Z 19013KT M06/M14 A3017 RMK A01 T10611143  RH  052%=      5-min Rain = 0
KAD1 120739Z 18013KT M06/M14 A3017 RMK A01 T10611144  RH  052%=      5-min Rain = 0
KAD1 120740Z 18013KT M06/M14 A3017 RMK A01 T10621144  RH  052%=      5-min Rain = 0
KAD1 120741Z 18012KT M06/M15 A3017 RMK A01 T10621145  RH  052%=      5-min Rain = 0
KAD1 120742Z 18012KT M06/M15 A3017 RMK A01 T10641146  RH  052%=      5-min Rain = 0
KAD1 120743Z 18012KT M07/M15 A3017 RMK A01 T10651148  RH  052%=      5-min Rain = 0
KAD1 120744Z 18012KT M07/M15 A3017 RMK A01 T10671150  RH  052%=      5-min Rain = 0
KAD1 120745Z 18012KT M07/M15 A3016 RMK A01 T10691150  RH  052%=      5-min Rain = 0
KAD1 120746Z 18012KT M07/M15 A3016 RMK A01 T10691149  RH  053%=      5-min Rain = 0
KAD1 120747Z 18012KT M07/M15 A3016 RMK A01 T10681148  RH  053%=      5-min Rain = 0
KAD1 120748Z 18012KT M07/M15 A3016 RMK A01 T10661146  RH  053%=      5-min Rain = 0
KAD1 120749Z 18012KT M06/M14 A3016 RMK A01 T10641144  RH  053%=      5-min Rain = 0
KAD1 120750Z 18012KT M06/M14 A3016 RMK A01 T10631144  RH  053%=      5-min Rain = 0
KAD1 120751Z 18012KT M06/M14 A3016 RMK A01 T10621144  RH  052%=      5-min Rain = 0
KAD1 120752Z 18013KT M06/M14 A3016 RMK A01 T10621144  RH  052%=      5-min Rain = 0
KAD1 120753Z 18014KT M06/M14 A3016 RMK A01 T10611144  RH  052%=      5-min Rain = 0
KAD1 120754Z 18014KT M06/M14 A3016 RMK A01 T10611144  RH  052%=      5-min Rain = 0
KAD1 120755Z 18016KT M06/M14 A3016 RMK A01 T10601143  RH  052%=      5-min Rain = 0
KAD1 120756Z 18016KT M06/M14 A3016 RMK A01 T10591143  RH  051%=      5-min Rain = 0
KAD1 120757Z 18016KT M06/M14 A3016 RMK A01 T10591143  RH  051%=      5-min Rain = 0
KAD1 120758Z 18017KT M06/M14 A3016 RMK A01 T10571142  RH  051%=      5-min Rain = 0
KAD1 120759Z 18016KT M06/M14 A3016 RMK A01 T10561142  RH  051%=      5-min Rain = 0
KAD1 120800Z 18016KT M06/M14 A3016 RMK A01 T10561142  RH  051%=      5-min Rain = 0
KAD1 120801Z 18016KT M06/M14 A3016 RMK A01 T10561142  RH  051%=      5-min Rain = 0
KAD1 120802Z 18016KT M06/M14 A3016 RMK A01 T10561142  RH  051%=      5-min Rain = 0
KAD1 120803Z 18015KT M06/M14 A3016 RMK A01 T10561141  RH  051%=      5-min Rain = 0
KAD1 120804Z 18015KT M06/M14 A3016 RMK A01 T10551142  RH  051%=      5-min Rain = 0
KAD1 120805Z 18014KT M06/M14 A3017 RMK A01 T10561142  RH  051%=      5-min Rain = 0
KAD1 120806Z 18015KT M06/M14 A3017 RMK A01 T10571142  RH  051%=      5-min Rain = 0
KAD1 120807Z 18014KT M06/M14 A3017 RMK A01 T10581143  RH  051%=      5-min Rain = 0
KAD1 120808Z 18015KT M06/M14 A3017 RMK A01 T10591143  RH  051%=      5-min Rain = 0
KAD1 120809Z 18015KT M06/M14 A3017 RMK A01 T10601144  RH  051%=      5-min Rain = 0
KAD1 120810Z 18015KT M06/M14 A3017 RMK A01 T10611144  RH  052%=      5-min Rain = 0
KAD1 120811Z 18015KT M06/M14 A3017 RMK A01 T10611144  RH  052%=      5-min Rain = 0
KAD1 120812Z 18016KT M06/M14 A3017 RMK A01 T10611143  RH  052%=      5-min Rain = 0
KAD1 120813Z 18016KT M06/M14 A3017 RMK A01 T10591141  RH  052%=      5-min Rain = 0
KAD1 120814Z 18016KT M06/M14 A3017 RMK A01 T10561139  RH  052%=      5-min Rain = 0
KAD1 120815Z 19015KT M06/M14 A3017 RMK A01 T10561139  RH  052%=      5-min Rain = 0
KAD1 120816Z 19015KT M06/M14 A3017 RMK A01 T10551139  RH  052%=      5-min Rain = 0
KAD1 120817Z 19014KT M05/M14 A3017 RMK A01 T10541138  RH  052%=      5-min Rain = 0
KAD1 120818Z 19013KT M05/M14 A3017 RMK A01 T10541139  RH  051%=      5-min Rain = 0
KAD1 120819Z 19013KT M06/M14 A3017 RMK A01 T10561140  RH  051%=      5-min Rain = 0
KAD1 120820Z 18013KT M06/M14 A3017 RMK A01 T10571141  RH  052%=      5-min Rain = 0
KAD1 120821Z 18013KT M06/M14 A3017 RMK A01 T10591142  RH  052%=      5-min Rain = 0
KAD1 120822Z 18013KT M06/M14 A3017 RMK A01 T10601143  RH  052%=      5-min Rain = 0
KAD1 120823Z 19013KT M06/M14 A3017 RMK A01 T10611143  RH  052%=      5-min Rain = 0
KAD1 120824Z 18014KT M06/M14 A3017 RMK A01 T10621143  RH  053%=      5-min Rain = 0
KAD1 120825Z 18013KT M06/M14 A3017 RMK A01 T10631143  RH  053%=      5-min Rain = 0
KAD1 120826Z 18013KT M06/M14 A3017 RMK A01 T10631143  RH  053%=      5-min Rain = 0
KAD1 120827Z 18013KT M06/M14 A3017 RMK A01 T10641144  RH  053%=      5-min Rain = 0
KAD1 120828Z 18013KT M06/M14 A3017 RMK A01 T10641143  RH  054%=      5-min Rain = 0
KAD1 120829Z 19013KT M07/M14 A3017 RMK A01 T10651143  RH  054%=      5-min Rain = 0
KAD1 120830Z 18013KT M07/M14 A3017 RMK A01 T10651143  RH  054%=      5-min Rain = 0
KAD1 120831Z 19013KT M07/M14 A3017 RMK A01 T10651143  RH  054%=      5-min Rain = 0
KAD1 120832Z 19013KT M06/M14 A3017 RMK A01 T10641142  RH  054%=      5-min Rain = 0
KAD1 120833Z 19013KT M06/M14 A3017 RMK A01 T10631141  RH  054%=      5-min Rain = 0
KAD1 120834Z 19013KT M06/M14 A3017 RMK A01 T10621140  RH  054%=      5-min Rain = 0
KAD1 120835Z 19013KT M06/M14 A3017 RMK A01 T10621140  RH  054%=      5-min Rain = 0
KAD1 120836Z 19013KT M06/M14 A3017 RMK A01 T10621140  RH  054%=      5-min Rain = 0
KAD1 120837Z 19013KT M06/M14 A3017 RMK A01 T10611139  RH  054%=      5-min Rain = 0
KAD1 120838Z 19013KT M06/M14 A3017 RMK A01 T10601138  RH  054%=      5-min Rain = 0
KAD1 120839Z 18013KT M06/M14 A3017 RMK A01 T10591138  RH  054%=      5-min Rain = 0
KAD1 120840Z 18013KT M06/M14 A3017 RMK A01 T10591138  RH  054%=      5-min Rain = 0
KAD1 120841Z 18013KT M06/M14 A3017 RMK A01 T10591138  RH  054%=      5-min Rain = 0
KAD1 120842Z 18013KT M06/M14 A3017 RMK A01 T10591139  RH  053%=      5-min Rain = 0
KAD1 120843Z 18013KT M06/M14 A3017 RMK A01 T10591139  RH  053%=      5-min Rain = 0
KAD1 120844Z 18014KT M06/M14 A3017 RMK A01 T10591139  RH  053%=      5-min Rain = 0
KAD1 120845Z 18014KT M06/M14 A3017 RMK A01 T10591139  RH  053%=      5-min Rain = 0
KAD1 120846Z 17014KT M06/M14 A3017 RMK A01 T10591138  RH  054%=      5-min Rain = 0
KAD1 120847Z 18014KT M06/M14 A3017 RMK A01 T10581137  RH  054%=      5-min Rain = 0
KAD1 120848Z 18014KT M06/M14 A3017 RMK A01 T10581137  RH  054%=      5-min Rain = 0
KAD1 120849Z 18014KT M06/M14 A3017 RMK A01 T10581137  RH  054%=      5-min Rain = 0
KAD1 120850Z 18014KT M06/M14 A3017 RMK A01 T10581137  RH  054%=      5-min Rain = 0
KAD1 120851Z 18014KT M06/M14 A3017 RMK A01 T10581137  RH  054%=      5-min Rain = 0
KAD1 120852Z 18014KT M06/M14 A3017 RMK A01 T10581136  RH  054%=      5-min Rain = 0
KAD1 120853Z 18014KT M06/M14 A3017 RMK A01 T10581136  RH  054%=      5-min Rain = 0
KAD1 120854Z 18015KT M06/M14 A3017 RMK A01 T10581137  RH  054%=      5-min Rain = 0
KAD1 120855Z 18015KT M06/M14 A3017 RMK A01 T10581137  RH  054%=      5-min Rain = 0
KAD1 120856Z 18014KT M06/M14 A3017 RMK A01 T10581137  RH  054%=      5-min Rain = 0
KAD1 120857Z 18014KT M06/M14 A3017 RMK A01 T10581137  RH  054%=      5-min Rain = 0
KAD1 120858Z 18014KT M06/M14 A3017 RMK A01 T10581136  RH  054%=      5-min Rain = 0
KAD1 120859Z 18014KT M06/M14 A3017 RMK A01 T10571136  RH  054%=      5-min Rain = 0
KAD1 120900Z 18014KT M06/M14 A3017 RMK A01 T10581136  RH  054%=      5-min Rain = 0
KAD1 120901Z 18014KT M06/M14 A3017 RMK A01 T10581137  RH  054%=      5-min Rain = 0
KAD1 120902Z 18015KT M06/M14 A3017 RMK A01 T10581137  RH  054%=      5-min Rain = 0
KAD1 120903Z 18014KT M06/M14 A3017 RMK A01 T10591137  RH  054%=      5-min Rain = 0
KAD1 120904Z 17014KT M06/M14 A3017 RMK A01 T10601137  RH  054%=      5-min Rain = 0
KAD1 120905Z 18014KT M06/M14 A3017 RMK A01 T10611138  RH  054%=      5-min Rain = 0
KAD1 120906Z 18015KT M06/M14 A3017 RMK A01 T10611138  RH  054%=      5-min Rain = 0
KAD1 120907Z 18015KT M06/M14 A3017 RMK A01 T10621139  RH  055%=      5-min Rain = 0
KAD1 120908Z 18015KT M06/M14 A3017 RMK A01 T10631139  RH  055%=      5-min Rain = 0
KAD1 120909Z 18015KT M06/M14 A3017 RMK A01 T10631139  RH  055%=      5-min Rain = 0
KAD1 120910Z 18015KT M06/M14 A3017 RMK A01 T10631138  RH  055%=      5-min Rain = 0
KAD1 120911Z 18015KT M06/M14 A3017 RMK A01 T10631137  RH  055%=      5-min Rain = 0
KAD1 120912Z 18015KT M06/M14 A3017 RMK A01 T10621137  RH  055%=      5-min Rain = 0
KAD1 120913Z 18015KT M06/M14 A3017 RMK A01 T10621137  RH  055%=      5-min Rain = 0
KAD1 120914Z 18015KT M06/M14 A3017 RMK A01 T10611137  RH  055%=      5-min Rain = 0
KAD1 120915Z 18015KT M06/M14 A3017 RMK A01 T10611136  RH  055%=      5-min Rain = 0
KAD1 120916Z 18014KT M06/M14 A3017 RMK A01 T10601136  RH  055%=      5-min Rain = 0
KAD1 120917Z 18014KT M06/M14 A3017 RMK A01 T10601137  RH  055%=      5-min Rain = 0
KAD1 120918Z 17014KT M06/M14 A3017 RMK A01 T10601137  RH  054%=      5-min Rain = 0
KAD1 120919Z 17014KT M06/M14 A3017 RMK A01 T10611138  RH  054%=      5-min Rain = 0
KAD1 120920Z 17014KT M06/M14 A3017 RMK A01 T10611138  RH  054%=      5-min Rain = 0
KAD1 120921Z 17013KT M06/M14 A3017 RMK A01 T10621139  RH  055%=      5-min Rain = 0
KAD1 120922Z 17013KT M06/M14 A3017 RMK A01 T10631139  RH  055%=      5-min Rain = 0
KAD1 120923Z 17014KT M06/M14 A3017 RMK A01 T10641140  RH  055%=      5-min Rain = 0
KAD1 120924Z 17013KT M07/M14 A3017 RMK A01 T10651140  RH  055%=      5-min Rain = 0
KAD1 120925Z 17013KT M07/M14 A3017 RMK A01 T10651139  RH  056%=      5-min Rain = 0
KAD1 120926Z 17013KT M07/M14 A3017 RMK A01 T10661140  RH  056%=      5-min Rain = 0
KAD1 120927Z 17013KT M07/M14 A3017 RMK A01 T10661139  RH  056%=      5-min Rain = 0
KAD1 120928Z 17013KT M07/M14 A3017 RMK A01 T10661139  RH  056%=      5-min Rain = 0
KAD1 120929Z 17014KT M07/M14 A3017 RMK A01 T10661139  RH  056%=      5-min Rain = 0
KAD1 120930Z 17014KT M07/M14 A3017 RMK A01 T10661139  RH  056%=      5-min Rain = 0
KAD1 120931Z 18015KT M07/M14 A3016 RMK A01 T10671139  RH  056%=      5-min Rain = 0
KAD1 120932Z 18014KT M07/M14 A3017 RMK A01 T10671139  RH  057%=      5-min Rain = 0
KAD1 120933Z 18014KT M07/M14 A3017 RMK A01 T10671139  RH  057%=      5-min Rain = 0
KAD1 120934Z 18014KT M07/M14 A3017 RMK A01 T10671139  RH  057%=      5-min Rain = 0
KAD1 120935Z 18014KT M07/M14 A3017 RMK A01 T10671139  RH  057%=      5-min Rain = 0
KAD1 120936Z 18014KT M07/M14 A3017 RMK A01 T10671139  RH  057%=      5-min Rain = 0
KAD1 120937Z 18015KT M07/M14 A3017 RMK A01 T10671138  RH  057%=      5-min Rain = 0
KAD1 120938Z 18015KT M07/M14 A3017 RMK A01 T10661138  RH  057%=      5-min Rain = 0
KAD1 120939Z 18015KT M07/M14 A3017 RMK A01 T10651136  RH  057%=      5-min Rain = 0
KAD1 120940Z 18015KT M06/M14 A3016 RMK A01 T10641136  RH  057%=      5-min Rain = 0
KAD1 120941Z 18015KT M06/M14 A3016 RMK A01 T10631135  RH  057%=      5-min Rain = 0
KAD1 120942Z 18015KT M06/M13 A3016 RMK A01 T10601133  RH  057%=      5-min Rain = 0
KAD1 120943Z 18015KT M06/M13 A3016 RMK A01 T10581132  RH  056%=      5-min Rain = 0
KAD1 120944Z 18014KT M06/M13 A3016 RMK A01 T10571132  RH  056%=      5-min Rain = 0
KAD1 120945Z 18015KT M06/M13 A3016 RMK A01 T10561132  RH  055%=      5-min Rain = 0
KAD1 120946Z 18015KT M06/M13 A3016 RMK A01 T10561133  RH  055%=      5-min Rain = 0
KAD1 120947Z 18014KT M06/M13 A3016 RMK A01 T10561132  RH  055%=      5-min Rain = 0
KAD1 120948Z 18015KT M06/M13 A3016 RMK A01 T10551132  RH  055%=      5-min Rain = 0
KAD1 120949Z 18014KT M06/M13 A3016 RMK A01 T10561132  RH  055%=      5-min Rain = 0
KAD1 120950Z 18014KT M06/M13 A3016 RMK A01 T10561133  RH  055%=      5-min Rain = 0
KAD1 120951Z 18014KT M06/M13 A3016 RMK A01 T10571133  RH  055%=      5-min Rain = 0
KAD1 120952Z 18014KT M06/M13 A3016 RMK A01 T10571133  RH  055%=      5-min Rain = 0
KAD1 120953Z 18014KT M06/M13 A3016 RMK A01 T10571132  RH  055%=      5-min Rain = 0
KAD1 120954Z 18015KT M06/M13 A3016 RMK A01 T10571132  RH  056%=      5-min Rain = 0
KAD1 120955Z 18014KT M06/M13 A3016 RMK A01 T10561131  RH  056%=      5-min Rain = 0
KAD1 120956Z 18014KT M06/M13 A3016 RMK A01 T10561131  RH  055%=      5-min Rain = 0
KAD1 120957Z 18014KT M06/M13 A3016 RMK A01 T10561131  RH  055%=      5-min Rain = 0
KAD1 120958Z 18015KT M06/M13 A3016 RMK A01 T10551130  RH  055%=      5-min Rain = 0
KAD1 120959Z 18014KT M06/M13 A3016 RMK A01 T10551130  RH  055%=      5-min Rain = 0
KAD1 121000Z 18015KT M06/M13 A3016 RMK A01 T10551130  RH  055%=      5-min Rain = 0
KAD1 121001Z 18015KT M06/M13 A3016 RMK A01 T10551130  RH  055%=      5-min Rain = 0
KAD1 121002Z 18015KT M05/M13 A3016 RMK A01 T10541130  RH  055%=      5-min Rain = 0
KAD1 121003Z 18015KT M05/M13 A3016 RMK A01 T10541129  RH  055%=      5-min Rain = 0
KAD1 121004Z 18014KT M05/M13 A3016 RMK A01 T10531129  RH  055%=      5-min Rain = 0
KAD1 121005Z 17014KT M05/M13 A3016 RMK A01 T10531129  RH  055%=      5-min Rain = 0
KAD1 121006Z 17014KT M05/M13 A3016 RMK A01 T10531129  RH  055%=      5-min Rain = 0
KAD1 121007Z 18013KT M05/M13 A3016 RMK A01 T10531129  RH  055%=      5-min Rain = 0
KAD1 121008Z 17014KT M05/M13 A3016 RMK A01 T10531129  RH  055%=      5-min Rain = 0
KAD1 121009Z 17013KT M05/M13 A3016 RMK A01 T10541130  RH  055%=      5-min Rain = 0
KAD1 121010Z 18014KT M05/M13 A3016 RMK A01 T10541129  RH  055%=      5-min Rain = 0
KAD1 121011Z 18015KT M05/M13 A3016 RMK A01 T10541129  RH  056%=      5-min Rain = 0
KAD1 121012Z 18015KT M05/M13 A3016 RMK A01 T10521127  RH  055%=      5-min Rain = 0
KAD1 121013Z 18015KT M05/M13 A3016 RMK A01 T10511127  RH  055%=      5-min Rain = 0
KAD1 121014Z 17015KT M05/M13 A3016 RMK A01 T10501127  RH  055%=      5-min Rain = 0
KAD1 121015Z 17015KT M05/M13 A3016 RMK A01 T10501128  RH  055%=      5-min Rain = 0
KAD1 121016Z 18015KT M05/M13 A3016 RMK A01 T10511128  RH  055%=      5-min Rain = 0
KAD1 121017Z 18015KT M05/M13 A3016 RMK A01 T10511128  RH  055%=      5-min Rain = 0
KAD1 121018Z 18014KT M05/M13 A3017 RMK A01 T10501127  RH  055%=      5-min Rain = 0
KAD1 121019Z 17014KT M05/M13 A3017 RMK A01 T10501127  RH  055%=      5-min Rain = 0
KAD1 121020Z 17014KT M05/M13 A3017 RMK A01 T10501128  RH  055%=      5-min Rain = 0
KAD1 121021Z 17014KT M05/M13 A3016 RMK A01 T10511129  RH  055%=      5-min Rain = 0
KAD1 121022Z 17014KT M05/M13 A3016 RMK A01 T10521128  RH  055%=      5-min Rain = 0
KAD1 121023Z 17014KT M05/M13 A3017 RMK A01 T10521128  RH  055%=      5-min Rain = 0
KAD1 121024Z 17013KT M05/M13 A3017 RMK A01 T10521128  RH  055%=      5-min Rain = 0
KAD1 121025Z 17013KT M05/M13 A3017 RMK A01 T10531128  RH  055%=      5-min Rain = 0
KAD1 121026Z 17012KT M05/M13 A3017 RMK A01 T10531128  RH  056%=      5-min Rain = 0
KAD1 121027Z 17012KT M05/M13 A3017 RMK A01 T10541129  RH  056%=      5-min Rain = 0
KAD1 121028Z 17012KT M05/M13 A3017 RMK A01 T10541129  RH  056%=      5-min Rain = 0
KAD1 121029Z 17011KT M06/M13 A3017 RMK A01 T10551129  RH  056%=      5-min Rain = 0
KAD1 121030Z 17013KT M06/M13 A3017 RMK A01 T10561129  RH  056%=      5-min Rain = 0
KAD1 121031Z 17012KT M06/M13 A3017 RMK A01 T10571129  RH  057%=      5-min Rain = 0
KAD1 121032Z 18013KT M06/M13 A3017 RMK A01 T10571129  RH  057%=      5-min Rain = 0
KAD1 121033Z 18014KT M06/M13 A3017 RMK A01 T10571129  RH  057%=      5-min Rain = 0
KAD1 121034Z 18013KT M06/M13 A3017 RMK A01 T10571128  RH  057%=      5-min Rain = 0
KAD1 121035Z 17013KT M06/M13 A3017 RMK A01 T10571129  RH  057%=      5-min Rain = 0
KAD1 121036Z 17013KT M06/M13 A3017 RMK A01 T10571129  RH  057%=      5-min Rain = 0
KAD1 121037Z 18013KT M06/M13 A3016 RMK A01 T10581130  RH  057%=      5-min Rain = 0
KAD1 121038Z 18013KT M06/M13 A3016 RMK A01 T10581130  RH  057%=      5-min Rain = 0
KAD1 121039Z 17014KT M06/M13 A3016 RMK A01 T10581130  RH  057%=      5-min Rain = 0
KAD1 121040Z 17013KT M06/M13 A3016 RMK A01 T10591130  RH  057%=      5-min Rain = 0
KAD1 121041Z 17013KT M06/M13 A3016 RMK A01 T10601132  RH  057%=      5-min Rain = 0
KAD1 121042Z 17014KT M06/M13 A3016 RMK A01 T10611132  RH  057%=      5-min Rain = 0
KAD1 121043Z 17014KT M06/M13 A3016 RMK A01 T10621132  RH  058%=      5-min Rain = 0
KAD1 121044Z 17014KT M06/M13 A3016 RMK A01 T10621131  RH  058%=      5-min Rain = 0
KAD1 121045Z 17014KT M06/M13 A3016 RMK A01 T10621131  RH  058%=      5-min Rain = 0
KAD1 121046Z 17015KT M06/M13 A3016 RMK A01 T10621131  RH  058%=      5-min Rain = 0
KAD1 121047Z 17015KT M06/M13 A3016 RMK A01 T10621131  RH  058%=      5-min Rain = 0
KAD1 121048Z 17015KT M06/M13 A3016 RMK A01 T10611130  RH  058%=      5-min Rain = 0
KAD1 121049Z 17015KT M06/M13 A3016 RMK A01 T10601129  RH  058%=      5-min Rain = 0
KAD1 121050Z 17015KT M06/M13 A3016 RMK A01 T10601129  RH  058%=      5-min Rain = 0
KAD1 121051Z 17014KT M06/M13 A3016 RMK A01 T10601129  RH  058%=      5-min Rain = 0
KAD1 121052Z 17015KT M06/M13 A3016 RMK A01 T10601130  RH  058%=      5-min Rain = 0
KAD1 121053Z 17014KT M06/M13 A3016 RMK A01 T10601129  RH  058%=      5-min Rain = 0
KAD1 121054Z 18015KT M06/M13 A3017 RMK A01 T10601129  RH  058%=      5-min Rain = 0
KAD1 121055Z 18015KT M06/M13 A3017 RMK A01 T10601130  RH  058%=      5-min Rain = 0
KAD1 121056Z 18014KT M06/M13 A3017 RMK A01 T10601129  RH  058%=      5-min Rain = 0
KAD1 121057Z 18015KT M06/M13 A3017 RMK A01 T10601129  RH  058%=      5-min Rain = 0
KAD1 121058Z 18014KT M06/M13 A3017 RMK A01 T10601129  RH  058%=      5-min Rain = 0
KAD1 121059Z 18014KT M06/M13 A3017 RMK A01 T10601129  RH  058%=      5-min Rain = 0
KAD1 121100Z 18013KT M06/M13 A3017 RMK A01 T10601129  RH  058%=      5-min Rain = 0
KAD1 121101Z 18013KT M06/M13 A3017 RMK A01 T10591128  RH  058%=      5-min Rain = 0
KAD1 121102Z 18012KT M06/M13 A3017 RMK A01 T10591128  RH  058%=      5-min Rain = 0
KAD1 121103Z 18012KT M06/M13 A3017 RMK A01 T10591128  RH  058%=      5-min Rain = 0
KAD1 121104Z 18011KT M06/M13 A3017 RMK A01 T10591128  RH  058%=      5-min Rain = 0
KAD1 121105Z 18011KT M06/M13 A3017 RMK A01 T10581128  RH  058%=      5-min Rain = 0
KAD1 121106Z 18012KT M06/M13 A3017 RMK A01 T10581127  RH  058%=      5-min Rain = 0
KAD1 121107Z 18012KT M06/M13 A3017 RMK A01 T10581127  RH  058%=      5-min Rain = 0
KAD1 121108Z 18013KT M06/M13 A3017 RMK A01 T10571126  RH  058%=      5-min Rain = 0
KAD1 121109Z 18011KT M06/M12 A3017 RMK A01 T10561124  RH  058%=      5-min Rain = 0
KAD1 121110Z 18013KT M05/M12 A3017 RMK A01 T10541124  RH  058%=      5-min Rain = 0
KAD1 121111Z 18011KT M05/M12 A3017 RMK A01 T10541124  RH  058%=      5-min Rain = 0
KAD1 121112Z 18012KT M05/M13 A3017 RMK A01 T10541125  RH  058%=      5-min Rain = 0
KAD1 121113Z 18012KT M06/M13 A3017 RMK A01 T10551125  RH  058%=      5-min Rain = 0
KAD1 121114Z 18012KT M06/M13 A3017 RMK A01 T10551126  RH  058%=      5-min Rain = 0
KAD1 121115Z 18011KT M06/M13 A3017 RMK A01 T10561126  RH  058%=      5-min Rain = 0
KAD1 121116Z 18010KT M06/M13 A3017 RMK A01 T10561126  RH  058%=      5-min Rain = 0
KAD1 121117Z 18011KT M06/M13 A3017 RMK A01 T10571126  RH  058%=      5-min Rain = 0
KAD1 121118Z 18011KT M06/M13 A3017 RMK A01 T10571126  RH  058%=      5-min Rain = 0
KAD1 121119Z 18011KT M06/M13 A3017 RMK A01 T10571126  RH  058%=      5-min Rain = 0
KAD1 121120Z 18009KT M06/M13 A3017 RMK A01 T10571126  RH  058%=      5-min Rain = 0
KAD1 121121Z 19010KT M06/M13 A3017 RMK A01 T10581127  RH  058%=      5-min Rain = 0
KAD1 121122Z 19010KT M06/M13 A3017 RMK A01 T10581126  RH  059%=      5-min Rain = 0
KAD1 121123Z 19011KT M06/M13 A3017 RMK A01 T10581125  RH  059%=      5-min Rain = 0
KAD1 121124Z 19011KT M06/M12 A3017 RMK A01 T10571124  RH  059%=      5-min Rain = 0
KAD1 121125Z 19010KT M06/M12 A3018 RMK A01 T10551123  RH  059%=      5-min Rain = 0
KAD1 121126Z 18011KT M06/M12 A3018 RMK A01 T10551123  RH  059%=      5-min Rain = 0
KAD1 121127Z 18010KT M06/M12 A3018 RMK A01 T10551124  RH  058%=      5-min Rain = 0
KAD1 121128Z 19009KT M06/M12 A3018 RMK A01 T10551124  RH  058%=      5-min Rain = 0
KAD1 121129Z 19009KT M06/M13 A3018 RMK A01 T10551125  RH  058%=      5-min Rain = 0
KAD1 121130Z 19009KT M06/M13 A3018 RMK A01 T10561125  RH  058%=      5-min Rain = 0
KAD1 121131Z 19010KT M06/M12 A3018 RMK A01 T10571124  RH  059%=      5-min Rain = 0
KAD1 121132Z 19010KT M06/M12 A3018 RMK A01 T10571124  RH  059%=      5-min Rain = 0
KAD1 121133Z 19010KT M06/M12 A3018 RMK A01 T10561123  RH  059%=      5-min Rain = 0
KAD1 121134Z 19009KT M06/M12 A3018 RMK A01 T10551123  RH  059%=      5-min Rain = 0
KAD1 121135Z 20009KT M06/M12 A3018 RMK A01 T10551123  RH  059%=      5-min Rain = 0
KAD1 121136Z 20008KT M06/M12 A3019 RMK A01 T10561123  RH  059%=      5-min Rain = 0
KAD1 121137Z 20008KT M06/M12 A3019 RMK A01 T10571124  RH  059%=      5-min Rain = 0
KAD1 121138Z 20007KT M06/M12 A3019 RMK A01 T10571124  RH  059%=      5-min Rain = 0
KAD1 121139Z 20007KT M06/M13 A3019 RMK A01 T10581125  RH  059%=      5-min Rain = 0
KAD1 121140Z 21007KT M06/M13 A3019 RMK A01 T10591125  RH  060%=      5-min Rain = 0
KAD1 121141Z 20008KT M06/M13 A3019 RMK A01 T10601125  RH  060%=      5-min Rain = 0
KAD1 121142Z 21009KT M06/M13 A3019 RMK A01 T10601125  RH  060%=      5-min Rain = 0
KAD1 121143Z 21010KT M06/M13 A3019 RMK A01 T10601125  RH  060%=      5-min Rain = 0
KAD1 121144Z 20010KT M06/M12 A3019 RMK A01 T10591124  RH  060%=      5-min Rain = 0
KAD1 121145Z 21009KT M06/M12 A3019 RMK A01 T10591124  RH  060%=      5-min Rain = 0
KAD1 121146Z 21009KT M06/M13 A3019 RMK A01 T10591125  RH  060%=      5-min Rain = 0
KAD1 121147Z 21009KT M06/M13 A3019 RMK A01 T10601125  RH  060%=      5-min Rain = 0
KAD1 121148Z 21008KT M06/M13 A3019 RMK A01 T10611125  RH  061%=      5-min Rain = 0
KAD1 121149Z 22008KT M06/M13 A3019 RMK A01 T10621126  RH  061%=      5-min Rain = 0
KAD1 121150Z 22009KT M06/M13 A3019 RMK A01 T10641126  RH  061%=      5-min Rain = 0
KAD1 121151Z 21009KT M07/M13 A3019 RMK A01 T10651126  RH  062%=      5-min Rain = 0
KAD1 121152Z 21009KT M07/M13 A3019 RMK A01 T10651126  RH  062%=      5-min Rain = 0
KAD1 121153Z 21010KT M07/M13 A3019 RMK A01 T10661126  RH  062%=      5-min Rain = 0
KAD1 121154Z 20010KT M07/M13 A3019 RMK A01 T10651125  RH  062%=      5-min Rain = 0
KAD1 121155Z 20010KT M07/M13 A3019 RMK A01 T10651125  RH  062%=      5-min Rain = 0
KAD1 121156Z 20010KT M07/M13 A3019 RMK A01 T10651125  RH  062%=      5-min Rain = 0
KAD1 121157Z 20011KT M06/M13 A3019 RMK A01 T10641125  RH  062%=      5-min Rain = 0
KAD1 121158Z 19011KT M06/M13 A3019 RMK A01 T10641125  RH  062%=      5-min Rain = 0
KAD1 121159Z 19011KT M06/M13 A3018 RMK A01 T10641125  RH  062%=      5-min Rain = 0
KAD1 121200Z 19012KT M06/M13 A3018 RMK A01 T10641125  RH  062%=      5-min Rain = 0
KAD1 121201Z 19013KT M06/M12 A3018 RMK A01 T10631124  RH  062%=      5-min Rain = 0
KAD1 121202Z 19013KT M06/M12 A3018 RMK A01 T10611122  RH  062%=      5-min Rain = 0
KAD1 121203Z 19013KT M06/M12 A3018 RMK A01 T10611122  RH  062%=      5-min Rain = 0
KAD1 121204Z 19013KT M06/M12 A3018 RMK A01 T10601122  RH  061%=      5-min Rain = 0
KAD1 121205Z 19013KT M06/M12 A3018 RMK A01 T10591122  RH  061%=      5-min Rain = 0
KAD1 121206Z 19013KT M06/M12 A3018 RMK A01 T10591122  RH  061%=      5-min Rain = 0
KAD1 121207Z 19013KT M06/M12 A3018 RMK A01 T10601123  RH  061%=      5-min Rain = 0
KAD1 121208Z 19014KT M06/M12 A3018 RMK A01 T10591123  RH  061%=      5-min Rain = 0
KAD1 121209Z 19015KT M06/M12 A3018 RMK A01 T10581122  RH  061%=      5-min Rain = 0
KAD1 121210Z 18014KT M06/M12 A3018 RMK A01 T10571122  RH  061%=      5-min Rain = 0
KAD1 121211Z 19014KT M06/M12 A3018 RMK A01 T10571122  RH  060%=      5-min Rain = 0
KAD1 121212Z 18014KT M06/M12 A3018 RMK A01 T10571122  RH  060%=      5-min Rain = 0
KAD1 121213Z 18014KT M06/M12 A3018 RMK A01 T10571123  RH  060%=      5-min Rain = 0
KAD1 121214Z 18013KT M06/M12 A3018 RMK A01 T10581124  RH  060%=      5-min Rain = 0
KAD1 121215Z 18013KT M06/M12 A3018 RMK A01 T10591124  RH  060%=      5-min Rain = 0
KAD1 121216Z 18013KT M06/M13 A3018 RMK A01 T10591125  RH  060%=      5-min Rain = 0
KAD1 121217Z 18014KT M06/M13 A3018 RMK A01 T10591125  RH  060%=      5-min Rain = 0
KAD1 121218Z 18013KT M06/M13 A3018 RMK A01 T10601125  RH  060%=      5-min Rain = 0
KAD1 121219Z 18014KT M06/M13 A3018 RMK A01 T10601125  RH  060%=      5-min Rain = 0
KAD1 121220Z 18013KT M06/M13 A3018 RMK A01 T10601125  RH  060%=      5-min Rain = 0
KAD1 121221Z 18013KT M06/M12 A3018 RMK A01 T10601124  RH  060%=      5-min Rain = 0
KAD1 121222Z 18012KT M06/M12 A3017 RMK A01 T10591124  RH  060%=      5-min Rain = 0
KAD1 121223Z 17013KT M06/M12 A3017 RMK A01 T10581123  RH  060%=      5-min Rain = 0
KAD1 121224Z 17012KT M06/M12 A3017 RMK A01 T10571123  RH  060%=      5-min Rain = 0
KAD1 121225Z 17012KT M06/M12 A3017 RMK A01 T10561123  RH  059%=      5-min Rain = 0
KAD1 121226Z 17012KT M06/M12 A3017 RMK A01 T10561123  RH  059%=      5-min Rain = 0
KAD1 121227Z 17012KT M06/M12 A3017 RMK A01 T10571124  RH  059%=      5-min Rain = 0
KAD1 121228Z 17012KT M06/M12 A3018 RMK A01 T10571124  RH  059%=      5-min Rain = 0
KAD1 121229Z 18013KT M06/M12 A3018 RMK A01 T10561123  RH  059%=      5-min Rain = 0
KAD1 121230Z 18012KT M06/M12 A3018 RMK A01 T10561123  RH  059%=      5-min Rain = 0
KAD1 121231Z 18012KT M06/M12 A3018 RMK A01 T10561123  RH  059%=      5-min Rain = 0
KAD1 121232Z 18012KT M06/M12 A3018 RMK A01 T10551122  RH  059%=      5-min Rain = 0
KAD1 121233Z 18013KT M05/M12 A3018 RMK A01 T10541121  RH  059%=      5-min Rain = 0
KAD1 121234Z 18013KT M05/M12 A3018 RMK A01 T10531120  RH  059%=      5-min Rain = 0
KAD1 121235Z 18013KT M05/M12 A3018 RMK A01 T10521120  RH  059%=      5-min Rain = 0
KAD1 121236Z 18014KT M05/M12 A3018 RMK A01 T10511119  RH  059%=      5-min Rain = 0
KAD1 121237Z 18015KT M05/M12 A3018 RMK A01 T10501118  RH  059%=      5-min Rain = 0
KAD1 121238Z 18016KT M05/M12 A3018 RMK A01 T10491118  RH  059%=      5-min Rain = 0
KAD1 121239Z 18015KT M05/M12 A3018 RMK A01 T10471116  RH  058%=      5-min Rain = 0
KAD1 121240Z 18015KT M05/M12 A3018 RMK A01 T10461116  RH  058%=      5-min Rain = 0
KAD1 121241Z 18015KT M05/M12 A3019 RMK A01 T10451116  RH  058%=      5-min Rain = 0
KAD1 121242Z 18015KT M04/M12 A3019 RMK A01 T10441115  RH  058%=      5-min Rain = 0
KAD1 121243Z 18014KT M04/M12 A3019 RMK A01 T10431115  RH  057%=      5-min Rain = 0
KAD1 121244Z 18014KT M04/M11 A3019 RMK A01 T10421114  RH  057%=      5-min Rain = 0
KAD1 121245Z 18014KT M04/M11 A3019 RMK A01 T10411114  RH  057%=      5-min Rain = 0
KAD1 121246Z 19014KT M04/M11 A3019 RMK A01 T10401114  RH  056%=      5-min Rain = 0
KAD1 121247Z 19015KT M04/M11 A3019 RMK A01 T10401114  RH  056%=      5-min Rain = 0
KAD1 121248Z 19014KT M04/M11 A302 RMK A01 T10381113  RH  056%=      5-min Rain = 0
KAD1 121249Z 19013KT M04/M11 A302 RMK A01 T10371112  RH  056%=      5-min Rain = 0
KAD1 121250Z 19013KT M04/M11 A302 RMK A01 T10361112  RH  056%=      5-min Rain = 0
KAD1 121251Z 19013KT M04/M11 A302 RMK A01 T10361113  RH  055%=      5-min Rain = 0
KAD1 121252Z 19013KT M04/M11 A302 RMK A01 T10361114  RH  055%=      5-min Rain = 0
KAD1 121253Z 18011KT M04/M11 A302 RMK A01 T10371114  RH  055%=      5-min Rain = 0
KAD1 121254Z 18011KT M04/M11 A302 RMK A01 T10371114  RH  055%=      5-min Rain = 0
KAD1 121255Z 18012KT M04/M11 A302 RMK A01 T10371114  RH  055%=      5-min Rain = 0
KAD1 121256Z 19011KT M04/M11 A302 RMK A01 T10381114  RH  055%=      5-min Rain = 0
KAD1 121257Z 19011KT M04/M11 A302 RMK A01 T10381114  RH  055%=      5-min Rain = 0
KAD1 121258Z 18012KT M04/M11 A302 RMK A01 T10381114  RH  056%=      5-min Rain = 0
KAD1 121259Z 18013KT M04/M11 A302 RMK A01 T10381114  RH  056%=      5-min Rain = 0
KAD1 121300Z 18013KT M04/M11 A302 RMK A01 T10371113  RH  056%=      5-min Rain = 0
KAD1 121301Z 18014KT M04/M11 A302 RMK A01 T10371113  RH  055%=      5-min Rain = 0
KAD1 121302Z 18013KT M04/M11 A302 RMK A01 T10381114  RH  055%=      5-min Rain = 0
KAD1 121303Z 18012KT M04/M11 A302 RMK A01 T10381114  RH  055%=      5-min Rain = 0
KAD1 121304Z 18013KT M04/M12 A302 RMK A01 T10391115  RH  056%=      5-min Rain = 0
KAD1 121305Z 18010KT M04/M12 A302 RMK A01 T10401115  RH  056%=      5-min Rain = 0
KAD1 121306Z 18011KT M04/M12 A302 RMK A01 T10401115  RH  056%=      5-min Rain = 0
KAD1 121307Z 19014KT M04/M12 A302 RMK A01 T10411116  RH  056%=      5-min Rain = 0
KAD1 121308Z 19013KT M04/M12 A302 RMK A01 T10411115  RH  056%=      5-min Rain = 0
KAD1 121309Z 19014KT M04/M12 A302 RMK A01 T10411115  RH  057%=      5-min Rain = 0
KAD1 121310Z 19014KT M04/M11 A302 RMK A01 T10411114  RH  057%=      5-min Rain = 0
KAD1 121311Z 19013KT M04/M11 A302 RMK A01 T10401114  RH  057%=      5-min Rain = 0
KAD1 121312Z 19013KT M04/M11 A302 RMK A01 T10411114  RH  057%=      5-min Rain = 0
KAD1 121313Z 19013KT M04/M12 A302 RMK A01 T10411115  RH  057%=      5-min Rain = 0
KAD1 121314Z 19014KT M04/M11 A302 RMK A01 T10411114  RH  057%=      5-min Rain = 0
KAD1 121315Z 19014KT M04/M11 A302 RMK A01 T10411114  RH  057%=      5-min Rain = 0
KAD1 121316Z 19014KT M04/M11 A302 RMK A01 T10411114  RH  057%=      5-min Rain = 0
KAD1 121317Z 19014KT M04/M11 A302 RMK A01 T10411114  RH  057%=      5-min Rain = 0
KAD1 121318Z 19013KT M04/M11 A302 RMK A01 T10401113  RH  057%=      5-min Rain = 0
KAD1 121319Z 19011KT M04/M11 A302 RMK A01 T10401113  RH  057%=      5-min Rain = 0
KAD1 121320Z 19011KT M04/M11 A302 RMK A01 T10401113  RH  056%=      5-min Rain = 0
KAD1 121321Z 19010KT M04/M11 A302 RMK A01 T10391113  RH  056%=      5-min Rain = 0
KAD1 121322Z 19010KT M04/M11 A3021 RMK A01 T10401114  RH  056%=      5-min Rain = 0
KAD1 121323Z 19009KT M04/M11 A3021 RMK A01 T10411114  RH  056%=      5-min Rain = 0
KAD1 121324Z 19010KT M04/M11 A3021 RMK A01 T10411114  RH  057%=      5-min Rain = 0
KAD1 121325Z 19009KT M04/M11 A3021 RMK A01 T10411114  RH  057%=      5-min Rain = 0
KAD1 121326Z 19010KT M04/M11 A3021 RMK A01 T10411114  RH  057%=      5-min Rain = 0
KAD1 121327Z 19011KT M04/M11 A3021 RMK A01 T10411114  RH  057%=      5-min Rain = 0
KAD1 121328Z 19011KT M04/M11 A3021 RMK A01 T10401114  RH  057%=      5-min Rain = 0
KAD1 121329Z 18011KT M04/M11 A3021 RMK A01 T10401113  RH  057%=      5-min Rain = 0
KAD1 121330Z 18011KT M04/M11 A3021 RMK A01 T10391114  RH  056%=      5-min Rain = 0
KAD1 121331Z 18011KT M04/M11 A3021 RMK A01 T10391113  RH  056%=      5-min Rain = 0
KAD1 121332Z 19011KT M04/M11 A3021 RMK A01 T10381113  RH  056%=      5-min Rain = 0
KAD1 121333Z 18011KT M04/M11 A3021 RMK A01 T10371112  RH  056%=      5-min Rain = 0
KAD1 121334Z 19012KT M04/M11 A3021 RMK A01 T10361112  RH  056%=      5-min Rain = 0
KAD1 121335Z 18012KT M04/M11 A3021 RMK A01 T10351112  RH  055%=      5-min Rain = 0
KAD1 121336Z 18013KT M04/M11 A3021 RMK A01 T10351112  RH  055%=      5-min Rain = 0
KAD1 121337Z 18013KT M03/M11 A3021 RMK A01 T10341112  RH  055%=      5-min Rain = 0
KAD1 121338Z 19013KT M03/M11 A3021 RMK A01 T10341113  RH  054%=      5-min Rain = 0
KAD1 121339Z 19013KT M03/M11 A3021 RMK A01 T10331113  RH  054%=      5-min Rain = 0
KAD1 121340Z 19013KT M03/M11 A3021 RMK A01 T10331113  RH  054%=      5-min Rain = 0
KAD1 121341Z 18012KT M03/M11 A3021 RMK A01 T10341113  RH  054%=      5-min Rain = 0
KAD1 121342Z 18012KT M03/M11 A3021 RMK A01 T10341113  RH  054%=      5-min Rain = 0
KAD1 121343Z 18012KT M03/M11 A3021 RMK A01 T10331113  RH  054%=      5-min Rain = 0
KAD1 121344Z 19012KT M03/M11 A3021 RMK A01 T10331113  RH  054%=      5-min Rain = 0
KAD1 121345Z 19012KT M03/M11 A3021 RMK A01 T10331113  RH  054%=      5-min Rain = 0
KAD1 121346Z 19013KT M03/M11 A3021 RMK A01 T10321113  RH  054%=      5-min Rain = 0
KAD1 121347Z 18012KT M03/M11 A3021 RMK A01 T10321113  RH  054%=      5-min Rain = 0
KAD1 121348Z 18013KT M03/M11 A3021 RMK A01 T10321113  RH  054%=      5-min Rain = 0
KAD1 121349Z 19015KT M03/M11 A3021 RMK A01 T10311113  RH  053%=      5-min Rain = 0
KAD1 121350Z 19014KT M03/M11 A3021 RMK A01 T10301112  RH  053%=      5-min Rain = 0
KAD1 121351Z 19014KT M03/M11 A3021 RMK A01 T10291112  RH  053%=      5-min Rain = 0
KAD1 121352Z 19013KT M03/M11 A3021 RMK A01 T10291112  RH  053%=      5-min Rain = 0
KAD1 121353Z 19015KT M03/M11 A3021 RMK A01 T10291113  RH  052%=      5-min Rain = 0
KAD1 121354Z 19014KT M03/M11 A3021 RMK A01 T10291114  RH  052%=      5-min Rain = 0
KAD1 121355Z 19013KT M03/M11 A3022 RMK A01 T10291114  RH  052%=      5-min Rain = 0
KAD1 121356Z 19013KT M03/M11 A3022 RMK A01 T10291114  RH  052%=      5-min Rain = 0
KAD1 121357Z 19013KT M03/M11 A3022 RMK A01 T10291114  RH  052%=      5-min Rain = 0
KAD1 121358Z 19014KT M03/M11 A3022 RMK A01 T10291114  RH  052%=      5-min Rain = 0
KAD1 121359Z 19012KT M03/M11 A3022 RMK A01 T10291114  RH  052%=      5-min Rain = 0
KAD1 121400Z 19013KT M03/M11 A3022 RMK A01 T10291114  RH  052%=      5-min Rain = 0
KAD1 121401Z 19013KT M03/M11 A3022 RMK A01 T10281114  RH  052%=      5-min Rain = 0
KAD1 121402Z 19014KT M03/M12 A3022 RMK A01 T10291115  RH  051%=      5-min Rain = 0
KAD1 121403Z 19013KT M03/M12 A3022 RMK A01 T10281115  RH  051%=      5-min Rain = 0
KAD1 121404Z 19012KT M03/M12 A3022 RMK A01 T10281115  RH  051%=      5-min Rain = 0
KAD1 121405Z 19012KT M03/M12 A3022 RMK A01 T10271115  RH  051%=      5-min Rain = 0
KAD1 121406Z 19012KT M03/M12 A3022 RMK A01 T10271115  RH  051%=      5-min Rain = 0
KAD1 121407Z 19010KT M03/M12 A3022 RMK A01 T10271115  RH  051%=      5-min Rain = 0
KAD1 121408Z 19011KT M03/M12 A3022 RMK A01 T10271115  RH  051%=      5-min Rain = 0
KAD1 121409Z 19012KT M03/M12 A3022 RMK A01 T10281115  RH  051%=      5-min Rain = 0
KAD1 121410Z 19012KT M03/M12 A3022 RMK A01 T10281115  RH  051%=      5-min Rain = 0
KAD1 121411Z 19012KT M03/M12 A3022 RMK A01 T10281115  RH  051%=      5-min Rain = 0
KAD1 121412Z 19012KT M03/M12 A3023 RMK A01 T10281115  RH  051%=      5-min Rain = 0
KAD1 121413Z 19012KT M03/M12 A3023 RMK A01 T10281116  RH  051%=      5-min Rain = 0
KAD1 121414Z 18012KT M03/M12 A3023 RMK A01 T10271116  RH  051%=      5-min Rain = 0
KAD1 121415Z 19010KT M03/M12 A3023 RMK A01 T10281116  RH  051%=      5-min Rain = 0
KAD1 121416Z 19013KT M03/M12 A3023 RMK A01 T10281115  RH  051%=      5-min Rain = 0
KAD1 121417Z 19013KT M03/M12 A3023 RMK A01 T10281116  RH  051%=      5-min Rain = 0
KAD1 121418Z 19012KT M03/M12 A3023 RMK A01 T10281116  RH  051%=      5-min Rain = 0
KAD1 121419Z 19012KT M03/M12 A3023 RMK A01 T10271116  RH  051%=      5-min Rain = 0
KAD1 121420Z 19011KT M03/M12 A3023 RMK A01 T10271116  RH  050%=      5-min Rain = 0
KAD1 121421Z 19011KT M03/M12 A3023 RMK A01 T10271116  RH  050%=      5-min Rain = 0
KAD1 121422Z 19013KT M03/M12 A3023 RMK A01 T10271116  RH  050%=      5-min Rain = 0
KAD1 121423Z 19014KT M03/M12 A3023 RMK A01 T10271117  RH  050%=      5-min Rain = 0
KAD1 121424Z 19013KT M03/M12 A3023 RMK A01 T10261117  RH  050%=      5-min Rain = 0
KAD1 121425Z 18013KT M03/M12 A3023 RMK A01 T10261117  RH  050%=      5-min Rain = 0
KAD1 121426Z 18014KT M03/M12 A3023 RMK A01 T10261117  RH  050%=      5-min Rain = 0
KAD1 121427Z 19014KT M03/M12 A3023 RMK A01 T10261117  RH  049%=      5-min Rain = 0
KAD1 121428Z 18013KT M03/M12 A3023 RMK A01 T10261118  RH  049%=      5-min Rain = 0
KAD1 121429Z 18015KT M03/M12 A3023 RMK A01 T10261117  RH  049%=      5-min Rain = 0
KAD1 121430Z 18016KT M03/M12 A3023 RMK A01 T10261117  RH  049%=      5-min Rain = 0
KAD1 121431Z 19014KT M03/M12 A3023 RMK A01 T10261117  RH  049%=      5-min Rain = 0
KAD1 121432Z 19017KT M03/M12 A3024 RMK A01 T10261118  RH  049%=      5-min Rain = 0
KAD1 121433Z 19015KT M03/M12 A3024 RMK A01 T10261118  RH  049%=      5-min Rain = 0
KAD1 121434Z 18015KT M03/M12 A3024 RMK A01 T10261118  RH  049%=      5-min Rain = 0
KAD1 121435Z 18013KT M03/M12 A3024 RMK A01 T10261118  RH  049%=      5-min Rain = 0
KAD1 121436Z 18013KT M03/M12 A3024 RMK A01 T10261118  RH  049%=      5-min Rain = 0
KAD1 121437Z 18015KT M03/M12 A3024 RMK A01 T10261118  RH  049%=      5-min Rain = 0
KAD1 121438Z 18015KT M03/M12 A3024 RMK A01 T10261118  RH  049%=      5-min Rain = 0
KAD1 121439Z 18014KT M03/M12 A3024 RMK A01 T10261119  RH  049%=      5-min Rain = 0
KAD1 121440Z 18013KT M03/M12 A3024 RMK A01 T10261118  RH  049%=      5-min Rain = 0
KAD1 121441Z 19014KT M03/M12 A3024 RMK A01 T10261118  RH  049%=      5-min Rain = 0
KAD1 121442Z 18014KT M03/M12 A3024 RMK A01 T10261118  RH  049%=      5-min Rain = 0
KAD1 121443Z 18013KT M03/M12 A3024 RMK A01 T10261119  RH  049%=      5-min Rain = 0
KAD1 121444Z 18014KT M03/M12 A3024 RMK A01 T10261119  RH  049%=      5-min Rain = 0
KAD1 121445Z 18013KT M03/M12 A3024 RMK A01 T10261119  RH  049%=      5-min Rain = 0
KAD1 121446Z 18014KT M02/M12 A3024 RMK A01 T10241118  RH  048%=      5-min Rain = 0
KAD1 121447Z 18014KT M02/M12 A3024 RMK A01 T10231118  RH  048%=      5-min Rain = 0
KAD1 121448Z 18013KT M02/M12 A3025 RMK A01 T10221118  RH  048%=      5-min Rain = 0
KAD1 121449Z 18013KT M02/M12 A3025 RMK A01 T10221119  RH  048%=      5-min Rain = 0
KAD1 121450Z 18011KT M02/M12 A3025 RMK A01 T10211118  RH  047%=      5-min Rain = 0
KAD1 121451Z 18010KT M02/M12 A3025 RMK A01 T10201118  RH  047%=      5-min Rain = 0
KAD1 121452Z 19012KT M02/M12 A3025 RMK A01 T10191116  RH  047%=      5-min Rain = 0
KAD1 121453Z 19012KT M02/M12 A3025 RMK A01 T10181118  RH  047%=      5-min Rain = 0
KAD1 121454Z 19012KT M02/M12 A3025 RMK A01 T10191118  RH  047%=      5-min Rain = 0
KAD1 121455Z 18012KT M02/M12 A3025 RMK A01 T10191119  RH  046%=      5-min Rain = 0
KAD1 121456Z 19011KT M02/M12 A3025 RMK A01 T10181119  RH  046%=      5-min Rain = 0
KAD1 121457Z 19011KT M02/M12 A3025 RMK A01 T10161118  RH  046%=      5-min Rain = 0
KAD1 121458Z 18011KT M01/M12 A3025 RMK A01 T10141117  RH  046%=      5-min Rain = 0
KAD1 121459Z 18011KT M01/M12 A3025 RMK A01 T10131118  RH  045%=      5-min Rain = 0
KAD1 121500Z 18012KT M01/M12 A3025 RMK A01 T10121117  RH  045%=      5-min Rain = 0
KAD1 121501Z 18010KT M01/M12 A3025 RMK A01 T10111118  RH  044%=      5-min Rain = 0
KAD1 121502Z 19013G18KT M01/M12 A3025 RMK A01 T10091115  RH  044%=      5-min Rain = 0
KAD1 121503Z 18013KT M01/M12 A3025 RMK A01 T10071118  RH  043%=      5-min Rain = 0
KAD1 121504Z 19011KT M01/M12 A3025 RMK A01 T10071121  RH  042%=      5-min Rain = 0
KAD1 121505Z 19011KT M01/M12 A3025 RMK A01 T10071119  RH  042%=      5-min Rain = 0
KAD1 121506Z 19011KT M01/M12 A3026 RMK A01 T10061118  RH  042%=      5-min Rain = 0
KAD1 121507Z 19011KT M01/M12 A3026 RMK A01 T10061119  RH  042%=      5-min Rain = 0
KAD1 121508Z 18010KT M01/M12 A3026 RMK A01 T10051118  RH  042%=      5-min Rain = 0
KAD1 121509Z 18014KT M01/M12 A3026 RMK A01 T10061119  RH  042%=      5-min Rain = 0
KAD1 121510Z 18011KT M01/M12 A3026 RMK A01 T10081122  RH  042%=      5-min Rain = 0
KAD1 121511Z 18013G18KT M01/M12 A3026 RMK A01 T10091121  RH  043%=      5-min Rain = 0
KAD1 121512Z 18012KT M01/M12 A3026 RMK A01 T10091120  RH  043%=      5-min Rain = 0
KAD1 121513Z 18014KT M01/M12 A3026 RMK A01 T10091122  RH  042%=      5-min Rain = 0
KAD1 121514Z 18014KT M01/M12 A3026 RMK A01 T10101124  RH  042%=      5-min Rain = 0
KAD1 121515Z 18013KT M01/M12 A3026 RMK A01 T10111124  RH  042%=      5-min Rain = 0
KAD1 121516Z 19012KT M01/M12 A3026 RMK A01 T10101123  RH  042%=      5-min Rain = 0
KAD1 121517Z 19010KT M01/M12 A3026 RMK A01 T10081123  RH  041%=      5-min Rain = 0
KAD1 121518Z 20011KT M01/M12 A3025 RMK A01 T10071122  RH  041%=      5-min Rain = 0
KAD1 121519Z 19011KT M01/M12 A3026 RMK A01 T10051121  RH  041%=      5-min Rain = 0
KAD1 121520Z 19013KT M00/M12 A3026 RMK A01 T10041122  RH  040%=      5-min Rain = 0
KAD1 121521Z 18013KT M00/M12 A3026 RMK A01 T10011120  RH  040%=      5-min Rain = 0
KAD1 121522Z 19015KT 00/12 A3026 RMK A01 T00-00-122  RH  040%=      5-min Rain = 0
KAD1 121523Z 19013KT M00/M12 A3026 RMK A01 T10011124  RH  039%=      5-min Rain = 0
KAD1 121524Z 19015KT M00/M13 A3026 RMK A01 T10011125  RH  039%=      5-min Rain = 0
KAD1 121525Z 18013KT M00/M13 A3026 RMK A01 T10011127  RH  038%=      5-min Rain = 0
KAD1 121526Z 19013KT M00/M13 A3025 RMK A01 T10011126  RH  038%=      5-min Rain = 0
KAD1 121527Z 20013KT 00/M13 A3025 RMK A01 T00011127  RH  038%=      5-min Rain = 0
KAD1 121528Z 20014KT 00/13 A3025 RMK A01 T00000-128  RH  038%=      5-min Rain = 0
KAD1 121529Z 19016KT M00/M13 A3025 RMK A01 T10011129  RH  038%=      5-min Rain = 0
KAD1 121530Z 19015KT M00/M13 A3025 RMK A01 T10041131  RH  038%=      5-min Rain = 0
KAD1 121531Z 19014KT M01/M13 A3025 RMK A01 T10051130  RH  038%=      5-min Rain = 0
KAD1 121532Z 19014KT M01/M13 A3026 RMK A01 T10061130  RH  038%=      5-min Rain = 0
KAD1 121533Z 19014KT M01/M13 A3026 RMK A01 T10061131  RH  038%=      5-min Rain = 0
KAD1 121534Z 18015KT M01/M13 A3026 RMK A01 T10061130  RH  039%=      5-min Rain = 0
KAD1 121535Z 19016KT M01/M13 A3026 RMK A01 T10071129  RH  039%=      5-min Rain = 0
KAD1 121536Z 19017KT M01/M13 A3025 RMK A01 T10081129  RH  039%=      5-min Rain = 0
KAD1 121537Z 18016KT M01/M13 A3026 RMK A01 T10081129  RH  040%=      5-min Rain = 0
KAD1 121538Z 18014KT M01/M13 A3026 RMK A01 T10091128  RH  040%=      5-min Rain = 0
KAD1 121539Z 18016KT M01/M13 A3025 RMK A01 T10081127  RH  040%=      5-min Rain = 0
KAD1 121540Z 18016KT M01/M13 A3025 RMK A01 T10071128  RH  040%=      5-min Rain = 0
KAD1 121541Z 18014KT M01/M13 A3025 RMK A01 T10061128  RH  039%=      5-min Rain = 0
KAD1 121542Z 18016KT M01/M13 A3025 RMK A01 T10051127  RH  039%=      5-min Rain = 0
KAD1 121543Z 18016KT M00/M13 A3025 RMK A01 T10031128  RH  039%=      5-min Rain = 0
KAD1 121544Z 18015KT M00/M13 A3025 RMK A01 T10011126  RH  038%=      5-min Rain = 0
KAD1 121545Z 18016KT 00/M13 A3025 RMK A01 T00021125  RH  038%=      5-min Rain = 0
KAD1 121546Z 18017KT 00/M13 A3025 RMK A01 T00021127  RH  037%=      5-min Rain = 0
KAD1 121547Z 18015KT 00/M13 A3025 RMK A01 T00021128  RH  037%=      5-min Rain = 0
KAD1 121548Z 19014KT 00/13 A3025 RMK A01 T00000-128  RH  037%=      5-min Rain = 0
KAD1 121549Z 18016G21KT 00/M13 A3025 RMK A01 T00021127  RH  037%=      5-min Rain = 0
KAD1 121550Z 18016KT 01/M13 A3025 RMK A01 T00051126  RH  037%=      5-min Rain = 0
KAD1 121551Z 18017KT 01/M13 A3025 RMK A01 T00071126  RH  036%=      5-min Rain = 0
KAD1 121552Z 18016KT 01/M13 A3025 RMK A01 T00081127  RH  036%=      5-min Rain = 0
KAD1 121553Z 18014KT 01/M13 A3025 RMK A01 T00071128  RH  036%=      5-min Rain = 0
KAD1 121554Z 18014KT 01/M13 A3025 RMK A01 T00051128  RH  036%=      5-min Rain = 0
KAD1 121555Z 18015KT 01/M13 A3025 RMK A01 T00051128  RH  036%=      5-min Rain = 0
KAD1 121556Z 18016KT 00/M13 A3025 RMK A01 T00031129  RH  036%=      5-min Rain = 0
KAD1 121557Z 18014KT 00/M13 A3025 RMK A01 T00011130  RH  037%=      5-min Rain = 0
KAD1 121558Z 19014KT 00/M13 A3025 RMK A01 T00021129  RH  037%=      5-min Rain = 0
KAD1 121559Z 19014KT 01/M13 A3025 RMK A01 T00051128  RH  036%=      5-min Rain = 0
KAD1 121600Z 18014KT 01/M13 A3025 RMK A01 T00081126  RH  036%=      5-min Rain = 0
KAD1 121601Z 18015KT 01/M13 A3025 RMK A01 T00091127  RH  035%=      5-min Rain = 0
KAD1 121602Z 19016KT 01/M13 A3025 RMK A01 T00091129  RH  035%=      5-min Rain = 0
KAD1 121603Z 18016KT 01/M13 A3025 RMK A01 T00081131  RH  035%=      5-min Rain = 0
KAD1 121604Z 19014KT 01/M13 A3025 RMK A01 T00081130  RH  035%=      5-min Rain = 0
KAD1 121605Z 17015KT 01/M13 A3025 RMK A01 T00081131  RH  035%=      5-min Rain = 0
KAD1 121606Z 17015KT 01/M13 A3025 RMK A01 T00071132  RH  034%=      5-min Rain = 0
KAD1 121607Z 19011KT 01/M13 A3025 RMK A01 T00101130  RH  034%=      5-min Rain = 0
KAD1 121608Z 19013KT 01/M13 A3025 RMK A01 T00141127  RH  034%=      5-min Rain = 0
KAD1 121609Z 18013KT 01/M13 A3025 RMK A01 T00141129  RH  034%=      5-min Rain = 0
KAD1 121610Z 17017KT 01/M13 A3025 RMK A01 T00141132  RH  033%=      5-min Rain = 0
KAD1 121611Z 18019KT 01/M14 A3025 RMK A01 T00141136  RH  032%=      5-min Rain = 0
KAD1 121612Z 18017KT 02/M14 A3025 RMK A01 T00151139  RH  031%=      5-min Rain = 0
KAD1 121613Z 18017KT 02/M14 A3025 RMK A01 T00161140  RH  030%=      5-min Rain = 0
KAD1 121614Z 17019KT 02/M14 A3025 RMK A01 T00171141  RH  030%=      5-min Rain = 0
KAD1 121615Z 16017KT 02/M14 A3025 RMK A01 T00171142  RH  030%=      5-min Rain = 0
KAD1 121616Z 17018KT 02/M14 A3025 RMK A01 T00181142  RH  029%=      5-min Rain = 0
KAD1 121617Z 16017KT 02/M14 A3025 RMK A01 T00191143  RH  029%=      5-min Rain = 0
KAD1 121618Z 17017KT 02/M14 A3025 RMK A01 T00181143  RH  029%=      5-min Rain = 0
KAD1 121619Z 18015KT 01/M15 A3025 RMK A01 T00141146  RH  029%=      5-min Rain = 0
KAD1 121620Z 17017KT 01/M15 A3025 RMK A01 T00121145  RH  030%=      5-min Rain = 0
KAD1 121621Z 17017KT 01/M14 A3025 RMK A01 T00121144  RH  030%=      5-min Rain = 0
KAD1 121622Z 17014KT 02/M14 A3025 RMK A01 T00151142  RH  030%=      5-min Rain = 0
KAD1 121623Z 18014KT 02/M14 A3025 RMK A01 T00171138  RH  030%=      5-min Rain = 0
KAD1 121624Z 18014KT 02/M14 A3025 RMK A01 T00181137  RH  031%=      5-min Rain = 0
KAD1 121625Z 18016KT 02/M14 A3025 RMK A01 T00181137  RH  031%=      5-min Rain = 0
KAD1 121626Z 17014KT 02/M14 A3025 RMK A01 T00161138  RH  031%=      5-min Rain = 0
KAD1 121627Z 17014KT 02/M14 A3025 RMK A01 T00171135  RH  031%=      5-min Rain = 0
KAD1 121628Z 17015KT 02/M14 A3024 RMK A01 T00181135  RH  031%=      5-min Rain = 0
KAD1 121629Z 16018KT 02/M14 A3024 RMK A01 T00211137  RH  030%=      5-min Rain = 0
KAD1 121630Z 17018KT 02/M14 A3024 RMK A01 T00221143  RH  028%=      5-min Rain = 0
KAD1 121631Z 17019KT 02/M15 A3024 RMK A01 T00201146  RH  028%=      5-min Rain = 0
KAD1 121632Z 17020KT 02/M15 A3024 RMK A01 T00211147  RH  028%=      5-min Rain = 0
KAD1 121633Z 17020KT 02/M15 A3024 RMK A01 T00221149  RH  027%=      5-min Rain = 0
KAD1 121634Z 17020KT 02/M15 A3024 RMK A01 T00211151  RH  027%=      5-min Rain = 0
KAD1 121635Z 17016KT 02/M15 A3024 RMK A01 T00181152  RH  027%=      5-min Rain = 0
KAD1 121636Z 17016KT 02/M15 A3024 RMK A01 T00171151  RH  028%=      5-min Rain = 0
KAD1 121637Z 17020KT 02/M15 A3024 RMK A01 T00161152  RH  028%=      5-min Rain = 0
KAD1 121638Z 17019KT 02/M15 A3024 RMK A01 T00151153  RH  028%=      5-min Rain = 0
KAD1 121639Z 18018KT 02/M15 A3024 RMK A01 T00161152  RH  027%=      5-min Rain = 0
KAD1 121640Z 17017KT 02/M15 A3024 RMK A01 T00231149  RH  027%=      5-min Rain = 0
KAD1 121641Z 18021KT 03/M15 A3024 RMK A01 T00291151  RH  025%=      5-min Rain = 0
KAD1 121642Z 18023KT 03/M16 A3024 RMK A01 T00291160  RH  024%=      5-min Rain = 0
KAD1 121643Z 17020KT 03/M16 A3024 RMK A01 T00271158  RH  024%=      5-min Rain = 0
KAD1 121644Z 18021KT 03/M16 A3024 RMK A01 T00271157  RH  024%=      5-min Rain = 0
KAD1 121645Z 18020KT 03/M15 A3024 RMK A01 T00261154  RH  025%=      5-min Rain = 0
KAD1 121646Z 18018G23KT 03/M15 A3024 RMK A01 T00251152  RH  026%=      5-min Rain = 0
KAD1 121647Z 17017KT 03/M15 A3024 RMK A01 T00271149  RH  026%=      5-min Rain = 0
KAD1 121648Z 17020KT 03/M15 A3024 RMK A01 T00281149  RH  026%=      5-min Rain = 0
KAD1 121649Z 17019KT 03/M15 A3024 RMK A01 T00271149  RH  026%=      5-min Rain = 0
KAD1 121650Z 17018KT 03/M15 A3024 RMK A01 T00271147  RH  026%=      5-min Rain = 0
KAD1 121651Z 17018KT 03/M15 A3024 RMK A01 T00291145  RH  027%=      5-min Rain = 0
KAD1 121652Z 17017KT 03/M14 A3024 RMK A01 T00311144  RH  026%=      5-min Rain = 0
KAD1 121653Z 19019KT 03/M15 A3024 RMK A01 T00311147  RH  026%=      5-min Rain = 0
KAD1 121654Z 19020KT 03/M15 A3024 RMK A01 T00251154  RH  025%=      5-min Rain = 0
KAD1 121655Z 18020KT 02/M15 A3024 RMK A01 T00231151  RH  026%=      5-min Rain = 0
KAD1 121656Z 17019KT 02/M15 A3023 RMK A01 T00241146  RH  027%=      5-min Rain = 0
KAD1 121657Z 18018KT 03/M14 A3024 RMK A01 T00261144  RH  027%=      5-min Rain = 0
KAD1 121658Z 17017KT 03/M14 A3024 RMK A01 T00281141  RH  028%=      5-min Rain = 0
KAD1 121659Z 17020KT 03/M14 A3023 RMK A01 T00311140  RH  027%=      5-min Rain = 0
KAD1 121700Z 17020KT 03/M14 A3023 RMK A01 T00291143  RH  027%=      5-min Rain = 0
KAD1 121701Z 18020KT 03/M14 A3023 RMK A01 T00291144  RH  027%=      5-min Rain = 0
KAD1 121702Z 18018KT 03/M15 A3023 RMK A01 T00301146  RH  026%=      5-min Rain = 0
KAD1 121703Z 18018KT 03/M14 A3024 RMK A01 T00321143  RH  026%=      5-min Rain = 0
KAD1 121704Z 17020KT 03/M15 A3023 RMK A01 T00341145  RH  026%=      5-min Rain = 0
KAD1 121705Z 16021KT 03/M15 A3023 RMK A01 T00331150  RH  025%=      5-min Rain = 0
KAD1 121706Z 17021KT 03/M15 A3024 RMK A01 T00321149  RH  025%=      5-min Rain = 0
KAD1 121707Z 17019G24KT 03/M15 A3024 RMK A01 T00321150  RH  025%=      5-min Rain = 0
KAD1 121708Z 17020KT 03/M15 A3024 RMK A01 T00311152  RH  025%=      5-min Rain = 0
KAD1 121709Z 17020KT 03/M15 A3023 RMK A01 T00311151  RH  025%=      5-min Rain = 0
KAD1 121710Z 18019KT 03/M15 A3024 RMK A01 T00301150  RH  025%=      5-min Rain = 0
KAD1 121711Z 17018KT 03/M15 A3024 RMK A01 T00301148  RH  026%=      5-min Rain = 0
KAD1 121712Z 17019KT 03/M15 A3024 RMK A01 T00301148  RH  026%=      5-min Rain = 0
KAD1 121713Z 17016KT 03/M15 A3024 RMK A01 T00301147  RH  026%=      5-min Rain = 0
KAD1 121714Z 17016KT 03/M15 A3024 RMK A01 T00321145  RH  026%=      5-min Rain = 0
KAD1 121715Z 18015KT 04/M14 A3024 RMK A01 T00361141  RH  026%=      5-min Rain = 0
KAD1 121716Z 18018G23KT 04/M14 A3023 RMK A01 T00361144  RH  025%=      5-min Rain = 0
KAD1 121717Z 17019KT 03/M15 A3024 RMK A01 T00341148  RH  025%=      5-min Rain = 0
KAD1 121718Z 18018KT 03/M15 A3024 RMK A01 T00341150  RH  025%=      5-min Rain = 0
KAD1 121719Z 17017KT 04/M15 A3024 RMK A01 T00351149  RH  025%=      5-min Rain = 0
KAD1 121720Z 18017KT 04/M15 A3024 RMK A01 T00371149  RH  024%=      5-min Rain = 0
KAD1 121721Z 18018KT 04/M15 A3023 RMK A01 T00381150  RH  024%=      5-min Rain = 0
KAD1 121722Z 17018KT 04/M15 A3023 RMK A01 T00381152  RH  024%=      5-min Rain = 0
KAD1 121723Z 17017KT 04/M15 A3023 RMK A01 T00371152  RH  024%=      5-min Rain = 0
KAD1 121724Z 18018KT 04/M15 A3023 RMK A01 T00371152  RH  024%=      5-min Rain = 0
KAD1 121725Z 18018KT 04/M16 A3023 RMK A01 T00361155  RH  023%=      5-min Rain = 0
KAD1 121726Z 17018KT 04/M15 A3023 RMK A01 T00381154  RH  023%=      5-min Rain = 0
KAD1 121727Z 18019KT 04/M15 A3023 RMK A01 T00391154  RH  023%=      5-min Rain = 0
KAD1 121728Z 19017KT 04/M16 A3023 RMK A01 T00381156  RH  023%=      5-min Rain = 0
KAD1 121729Z 19014KT 04/M16 A3023 RMK A01 T00371155  RH  023%=      5-min Rain = 0
KAD1 121730Z 18014G19KT 04/M15 A3024 RMK A01 T00391153  RH  023%=      5-min Rain = 0
KAD1 121731Z 17016KT 04/M15 A3024 RMK A01 T00431152  RH  023%=      5-min Rain = 0
KAD1 121732Z 18016KT 04/M16 A3024 RMK A01 T00441155  RH  022%=      5-min Rain = 0
KAD1 121733Z 18020KT 04/M16 A3024 RMK A01 T00431157  RH  022%=      5-min Rain = 0
KAD1 121734Z 19018KT 04/M16 A3023 RMK A01 T00421160  RH  021%=      5-min Rain = 0
KAD1 121735Z 18018KT 04/M16 A3024 RMK A01 T00421161  RH  021%=      5-min Rain = 0
KAD1 121736Z 18016KT 04/M16 A3024 RMK A01 T00421159  RH  022%=      5-min Rain = 0
KAD1 121737Z 19017KT 04/M16 A3024 RMK A01 T00421157  RH  022%=      5-min Rain = 0
KAD1 121738Z 19017G22KT 04/M16 A3023 RMK A01 T00421160  RH  021%=      5-min Rain = 0
KAD1 121739Z 18019KT 04/M16 A3023 RMK A01 T00441157  RH  022%=      5-min Rain = 0
KAD1 121740Z 18020KT 05/M16 A3023 RMK A01 T00451157  RH  021%=      5-min Rain = 0
KAD1 121741Z 18016KT 04/M16 A3024 RMK A01 T00431158  RH  022%=      5-min Rain = 0
KAD1 121742Z 18016KT 04/M15 A3023 RMK A01 T00441153  RH  022%=      5-min Rain = 0
KAD1 121743Z 19016KT 04/M15 A3023 RMK A01 T00441154  RH  022%=      5-min Rain = 0
KAD1 121744Z 17015G20KT 05/M15 A3023 RMK A01 T00451152  RH  022%=      5-min Rain = 0
KAD1 121745Z 17018KT 05/M15 A3023 RMK A01 T00471153  RH  022%=      5-min Rain = 0
KAD1 121746Z 17017KT 05/M16 A3023 RMK A01 T00481157  RH  021%=      5-min Rain = 0
KAD1 121747Z 19017KT 05/M16 A3023 RMK A01 T00491158  RH  021%=      5-min Rain = 0
KAD1 121748Z 18020KT 05/M16 A3023 RMK A01 T00491158  RH  021%=      5-min Rain = 0
KAD1 121749Z 18021KT 05/M16 A3023 RMK A01 T00491161  RH  020%=      5-min Rain = 0
KAD1 121750Z 19017KT 05/M16 A3023 RMK A01 T00481161  RH  020%=      5-min Rain = 0
KAD1 121751Z 18018KT 05/M16 A3023 RMK A01 T00491160  RH  020%=      5-min Rain = 0
KAD1 121752Z 19018KT 05/M16 A3023 RMK A01 T00491160  RH  020%=      5-min Rain = 0
KAD1 121753Z 17016KT 05/M16 A3023 RMK A01 T00491157  RH  021%=      5-min Rain = 0
KAD1 121754Z 17020KT 05/M15 A3022 RMK A01 T00511154  RH  021%=      5-min Rain = 0
KAD1 121755Z 18017KT 05/M16 A3022 RMK A01 T00491156  RH  021%=      5-min Rain = 0
KAD1 121756Z 18017KT 05/M15 A3022 RMK A01 T00511152  RH  021%=      5-min Rain = 0
KAD1 121757Z 17020KT 05/M15 A3022 RMK A01 T00541154  RH  021%=      5-min Rain = 0
KAD1 121758Z 18018KT 05/M16 A3022 RMK A01 T00531160  RH  020%=      5-min Rain = 0
KAD1 121759Z 18018KT 05/M16 A3022 RMK A01 T00521158  RH  020%=      5-min Rain = 0
KAD1 121800Z 17020G25KT 05/M16 A3022 RMK A01 T00521156  RH  021%=      5-min Rain = 0
KAD1 121801Z 18020KT 05/M16 A3022 RMK A01 T00511161  RH  020%=      5-min Rain = 0
KAD1 121802Z 18022KT 05/M16 A3022 RMK A01 T00501160  RH  020%=      5-min Rain = 0
KAD1 121803Z 18018KT 05/M16 A3022 RMK A01 T00481160  RH  020%=      5-min Rain = 0
KAD1 121804Z 17018KT 05/M16 A3022 RMK A01 T00471159  RH  021%=      5-min Rain = 0
KAD1 121805Z 17018KT 05/M16 A3022 RMK A01 T00471157  RH  021%=      5-min Rain = 0
KAD1 121806Z 17016KT 05/M16 A3022 RMK A01 T00471155  RH  022%=      5-min Rain = 0
KAD1 121807Z 17017KT 05/M15 A3022 RMK A01 T00501152  RH  022%=      5-min Rain = 0
KAD1 121808Z 18018KT 06/M15 A3022 RMK A01 T00551150  RH  021%=      5-min Rain = 0
KAD1 121809Z 17019KT 05/M15 A3022 RMK A01 T00541154  RH  021%=      5-min Rain = 0
KAD1 121810Z 17017KT 05/M15 A3022 RMK A01 T00541154  RH  021%=      5-min Rain = 0
KAD1 121811Z 17018KT 05/M15 A3022 RMK A01 T00541154  RH  021%=      5-min Rain = 0
KAD1 121812Z 17018KT 06/M16 A3022 RMK A01 T00551156  RH  020%=      5-min Rain = 0
KAD1 121813Z 17016KT 05/M16 A3021 RMK A01 T00541157  RH  020%=      5-min Rain = 0
KAD1 121814Z 17021G27KT 05/M16 A3021 RMK A01 T00541157  RH  020%=      5-min Rain = 0
KAD1 121815Z 17022KT 05/M16 A3021 RMK A01 T00531160  RH  020%=      5-min Rain = 0
KAD1 121816Z 17022KT 05/M16 A3021 RMK A01 T00521160  RH  020%=      5-min Rain = 0
KAD1 121817Z 18021KT 05/M16 A3021 RMK A01 T00521158  RH  020%=      5-min Rain = 0
KAD1 121818Z 17020KT 06/M16 A3021 RMK A01 T00551157  RH  020%=      5-min Rain = 0
KAD1 121819Z 17020KT 06/M16 A3021 RMK A01 T00551160  RH  020%=      5-min Rain = 0
KAD1 121820Z 18020KT 06/M16 A3021 RMK A01 T00551161  RH  019%=      5-min Rain = 0
KAD1 121821Z 18018KT 06/M16 A302 RMK A01 T00561160  RH  019%=      5-min Rain = 0
KAD1 121822Z 18019KT 06/M16 A302 RMK A01 T00581159  RH  019%=      5-min Rain = 0
KAD1 121823Z 16020KT 06/M16 A302 RMK A01 T00571161  RH  019%=      5-min Rain = 0
KAD1 121824Z 16022KT 06/M16 A302 RMK A01 T00581163  RH  019%=      5-min Rain = 0
KAD1 121825Z 17021KT 06/M17 A302 RMK A01 T00561165  RH  019%=      5-min Rain = 0
KAD1 121826Z 17021KT 05/M17 A302 RMK A01 T00531165  RH  019%=      5-min Rain = 0
KAD1 121827Z 17020KT 05/M16 A302 RMK A01 T00531163  RH  019%=      5-min Rain = 0
KAD1 121828Z 17019KT 05/M16 A302 RMK A01 T00541161  RH  019%=      5-min Rain = 0
KAD1 121829Z 16022KT 06/M16 A302 RMK A01 T00561157  RH  020%=      5-min Rain = 0
KAD1 121830Z 16019KT 06/M16 A302 RMK A01 T00571158  RH  020%=      5-min Rain = 0
KAD1 121831Z 17019KT 06/M16 A3019 RMK A01 T00571159  RH  020%=      5-min Rain = 0
KAD1 121832Z 18022KT 06/M16 A3019 RMK A01 T00571158  RH  020%=      5-min Rain = 0
KAD1 121833Z 18023KT 06/M16 A3019 RMK A01 T00581159  RH  019%=      5-min Rain = 0
KAD1 121834Z 18023KT 06/M16 A3019 RMK A01 T00561162  RH  019%=      5-min Rain = 0
KAD1 121835Z 17022G27KT 05/M16 A3019 RMK A01 T00541162  RH  019%=      5-min Rain = 0
KAD1 121836Z 17022KT 06/M16 A3019 RMK A01 T00571157  RH  020%=      5-min Rain = 0
KAD1 121837Z 17022KT 06/M16 A3019 RMK A01 T00581157  RH  020%=      5-min Rain = 0
KAD1 121838Z 18020KT 06/M16 A3019 RMK A01 T00571158  RH  020%=      5-min Rain = 0
KAD1 121839Z 19021KT 06/M16 A3018 RMK A01 T00581158  RH  019%=      5-min Rain = 0
KAD1 121840Z 18021KT 06/M16 A3018 RMK A01 T00591159  RH  019%=      5-min Rain = 0
KAD1 121841Z 18021G26KT 06/M16 A3018 RMK A01 T00611156  RH  019%=      5-min Rain = 0
KAD1 121842Z 17021G26KT 06/M16 A3018 RMK A01 T00611160  RH  019%=      5-min Rain = 0
KAD1 121843Z 18022G27KT 06/M16 A3018 RMK A01 T00591160  RH  019%=      5-min Rain = 0
KAD1 121844Z 16021KT 06/M16 A3018 RMK A01 T00601158  RH  019%=      5-min Rain = 0
KAD1 121845Z 17022KT 06/M16 A3018 RMK A01 T00571160  RH  019%=      5-min Rain = 0
KAD1 121846Z 17022KT 06/M16 A3018 RMK A01 T00561160  RH  019%=      5-min Rain = 0
KAD1 121847Z 18020G26KT 06/M16 A3018 RMK A01 T00581160  RH  019%=      5-min Rain = 0
KAD1 121848Z 18019KT 06/M16 A3018 RMK A01 T00601158  RH  019%=      5-min Rain = 0
KAD1 121849Z 18021G26KT 06/M16 A3018 RMK A01 T00611156  RH  019%=      5-min Rain = 0
KAD1 121850Z 18023KT 06/M16 A3018 RMK A01 T00611156  RH  019%=      5-min Rain = 0
KAD1 121851Z 18020KT 06/M16 A3019 RMK A01 T00591156  RH  020%=      5-min Rain = 0
KAD1 121852Z 19017KT 06/M16 A3019 RMK A01 T00571156  RH  020%=      5-min Rain = 0
KAD1 121853Z 17017KT 06/M15 A3019 RMK A01 T00591154  RH  020%=      5-min Rain = 0
KAD1 121854Z 17019KT 06/M15 A3019 RMK A01 T00621152  RH  020%=      5-min Rain = 0
KAD1 121855Z 18017KT 06/M15 A3019 RMK A01 T00611153  RH  020%=      5-min Rain = 0
KAD1 121856Z 18015KT 06/M15 A3019 RMK A01 T00611153  RH  020%=      5-min Rain = 0
KAD1 121857Z 18018KT 06/M15 A3019 RMK A01 T00611153  RH  020%=      5-min Rain = 0
KAD1 121858Z 18019KT 06/M15 A3019 RMK A01 T00611153  RH  020%=      5-min Rain = 0
KAD1 121859Z 17017KT 06/M15 A3019 RMK A01 T00601154  RH  020%=      5-min Rain = 0
KAD1 121900Z 16018KT 06/M15 A3019 RMK A01 T00601153  RH  020%=      5-min Rain = 0
KAD1 121901Z 16017KT 06/M15 A3019 RMK A01 T00611151  RH  020%=      5-min Rain = 0
KAD1 121902Z 17017KT 06/M15 A3019 RMK A01 T00631151  RH  020%=      5-min Rain = 0
KAD1 121903Z 19015KT 06/M15 A3019 RMK A01 T00621153  RH  020%=      5-min Rain = 0
KAD1 121904Z 19015KT 06/M15 A3019 RMK A01 T00621153  RH  020%=      5-min Rain = 0
KAD1 121905Z 17015KT 06/M15 A3019 RMK A01 T00621152  RH  020%=      5-min Rain = 0
KAD1 121906Z 16018KT 06/M15 A3019 RMK A01 T00641151  RH  020%=      5-min Rain = 0
KAD1 121907Z 16015G20KT 07/M15 A3019 RMK A01 T00651151  RH  020%=      5-min Rain = 0
KAD1 121908Z 16015KT 07/M15 A3019 RMK A01 T00691149  RH  019%=      5-min Rain = 0
KAD1 121909Z 17014KT 07/M15 A3019 RMK A01 T00681152  RH  019%=      5-min Rain = 0
KAD1 121910Z 16012KT 07/M15 A3019 RMK A01 T00661152  RH  019%=      5-min Rain = 0
KAD1 121911Z 16015G20KT 07/M15 A3019 RMK A01 T00671151  RH  019%=      5-min Rain = 0
KAD1 121912Z 16017KT 06/M15 A3019 RMK A01 T00641153  RH  019%=      5-min Rain = 0
KAD1 121913Z 18014G19KT 06/M15 A3019 RMK A01 T00611154  RH  020%=      5-min Rain = 0
KAD1 121914Z 18013KT 06/M15 A3019 RMK A01 T00641150  RH  020%=      5-min Rain = 0
KAD1 121915Z 17015KT 07/M15 A3019 RMK A01 T00661151  RH  020%=      5-min Rain = 0
KAD1 121916Z 19012KT 07/M15 A3019 RMK A01 T00651153  RH  019%=      5-min Rain = 0
KAD1 121917Z 18011G16KT 07/M15 A3019 RMK A01 T00661152  RH  019%=      5-min Rain = 0
KAD1 121918Z 17016KT 07/M15 A3019 RMK A01 T00691150  RH  019%=      5-min Rain = 0
KAD1 121919Z 17020KT 07/M15 A3019 RMK A01 T00711151  RH  019%=      5-min Rain = 0
KAD1 121920Z 17018KT 07/M15 A3019 RMK A01 T00711152  RH  019%=      5-min Rain = 0
KAD1 121921Z 17018KT 07/M16 A3018 RMK A01 T00671156  RH  019%=      5-min Rain = 0
KAD1 121922Z 18018KT 07/M15 A3018 RMK A01 T00671153  RH  019%=      5-min Rain = 0
KAD1 121923Z 18017KT 07/M15 A3018 RMK A01 T00671153  RH  019%=      5-min Rain = 0
KAD1 121924Z 19019KT 07/M15 A3018 RMK A01 T00661153  RH  019%=      5-min Rain = 0
KAD1 121925Z 18016KT 07/M15 A3018 RMK A01 T00681150  RH  019%=      5-min Rain = 0
KAD1 121926Z 18014KT 07/M15 A3018 RMK A01 T00671152  RH  019%=      5-min Rain = 0
KAD1 121927Z 17018KT 07/M15 A3018 RMK A01 T00671151  RH  019%=      5-min Rain = 0
KAD1 121928Z 17018KT 07/M15 A3018 RMK A01 T00681151  RH  019%=      5-min Rain = 0
KAD1 121929Z 17019KT 07/M15 A3018 RMK A01 T00691151  RH  019%=      5-min Rain = 0
KAD1 121930Z 19015KT 07/M15 A3018 RMK A01 T00681151  RH  019%=      5-min Rain = 0
KAD1 121931Z 19013KT 07/M15 A3017 RMK A01 T00681150  RH  019%=      5-min Rain = 0
KAD1 121932Z 18018KT 07/M15 A3017 RMK A01 T00721147  RH  019%=      5-min Rain = 0
KAD1 121933Z 19019KT 07/M15 A3017 RMK A01 T00741147  RH  019%=      5-min Rain = 0
KAD1 121934Z 18018KT 07/M15 A3017 RMK A01 T00731148  RH  019%=      5-min Rain = 0
KAD1 121935Z 18016KT 07/M15 A3017 RMK A01 T00721149  RH  019%=      5-min Rain = 0
KAD1 121936Z 18014KT 07/M15 A3017 RMK A01 T00711149  RH  019%=      5-min Rain = 0
KAD1 121937Z 17018G23KT 07/M15 A3017 RMK A01 T00711149  RH  019%=      5-min Rain = 0
KAD1 121938Z 19020KT 07/M15 A3017 RMK A01 T00741147  RH  019%=      5-min Rain = 0
KAD1 121939Z 19019KT 08/M15 A3017 RMK A01 T00761145  RH  019%=      5-min Rain = 0
KAD1 121940Z 18018KT 08/M15 A3017 RMK A01 T00781146  RH  019%=      5-min Rain = 0
KAD1 121941Z 19015KT 07/M15 A3017 RMK A01 T00721150  RH  019%=      5-min Rain = 0
KAD1 121942Z 19014KT 07/M15 A3017 RMK A01 T00691148  RH  019%=      5-min Rain = 0
KAD1 121943Z 18016KT 07/M15 A3017 RMK A01 T00691148  RH  020%=      5-min Rain = 0
KAD1 121944Z 18014G19KT 07/M15 A3017 RMK A01 T00701146  RH  020%=      5-min Rain = 0
KAD1 121945Z 18013G18KT 07/M14 A3017 RMK A01 T00741142  RH  020%=      5-min Rain = 0
KAD1 121946Z 17019G24KT 08/M14 A3016 RMK A01 T00791142  RH  019%=      5-min Rain = 0
KAD1 121947Z 17020KT 08/M15 A3016 RMK A01 T00761145  RH  019%=      5-min Rain = 0
KAD1 121948Z 18017KT 07/M15 A3016 RMK A01 T00731145  RH  019%=      5-min Rain = 0
KAD1 121949Z 17019KT 07/M15 A3016 RMK A01 T00711145  RH  020%=      5-min Rain = 0
KAD1 121950Z 18017KT 07/M15 A3016 RMK A01 T00701145  RH  020%=      5-min Rain = 0
KAD1 121951Z 19016KT 07/M14 A3016 RMK A01 T00711144  RH  020%=      5-min Rain = 0
KAD1 121952Z 17014KT 07/M14 A3016 RMK A01 T00721143  RH  020%=      5-min Rain = 0
KAD1 121953Z 17014G19KT 07/M14 A3016 RMK A01 T00741143  RH  020%=      5-min Rain = 0
KAD1 121954Z 19017KT 08/M14 A3016 RMK A01 T00761142  RH  020%=      5-min Rain = 0
KAD1 121955Z 19019KT 08/M14 A3016 RMK A01 T00781143  RH  019%=      5-min Rain = 0
KAD1 121956Z 18019KT 08/M15 A3015 RMK A01 T00751145  RH  019%=      5-min Rain = 0
KAD1 121957Z 18016KT 07/M14 A3015 RMK A01 T00741144  RH  020%=      5-min Rain = 0
KAD1 121958Z 18017KT 08/M14 A3015 RMK A01 T00791139  RH  020%=      5-min Rain = 0
KAD1 121959Z 17019KT 08/M14 A3015 RMK A01 T00801142  RH  019%=      5-min Rain = 0
KAD1 122000Z 17017KT 07/M15 A3015 RMK A01 T00741146  RH  019%=      5-min Rain = 0
KAD1 122001Z 17018KT 07/M14 A3015 RMK A01 T00731144  RH  020%=      5-min Rain = 0
KAD1 122002Z 17016KT 07/M14 A3015 RMK A01 T00731143  RH  020%=      5-min Rain = 0
KAD1 122003Z 18019KT 07/M14 A3015 RMK A01 T00731143  RH  020%=      5-min Rain = 0
KAD1 122004Z 17017KT 07/M15 A3015 RMK A01 T00721146  RH  020%=      5-min Rain = 0
KAD1 122005Z 17019G26KT 07/M14 A3015 RMK A01 T00731144  RH  020%=      5-min Rain = 0
KAD1 122006Z 17021KT 08/M14 A3015 RMK A01 T00781140  RH  020%=      5-min Rain = 0
KAD1 122007Z 17020KT 08/M14 A3015 RMK A01 T00771142  RH  020%=      5-min Rain = 0
KAD1 122008Z 17021KT 07/M15 A3015 RMK A01 T00741145  RH  019%=      5-min Rain = 0
KAD1 122009Z 17018KT 07/M15 A3015 RMK A01 T00681147  RH  020%=      5-min Rain = 0
KAD1 122010Z 18017KT 07/M15 A3015 RMK A01 T00671146  RH  020%=      5-min Rain = 0
KAD1 122011Z 17016KT 07/M14 A3015 RMK A01 T00651144  RH  021%=      5-min Rain = 0
KAD1 122012Z 17019KT 07/M14 A3015 RMK A01 T00671142  RH  021%=      5-min Rain = 0
KAD1 122013Z 18019KT 07/M14 A3015 RMK A01 T00681141  RH  021%=      5-min Rain = 0
KAD1 122014Z 18017KT 07/M14 A3015 RMK A01 T00681140  RH  021%=      5-min Rain = 0
KAD1 122015Z 17013KT 07/M14 A3014 RMK A01 T00691141  RH  021%=      5-min Rain = 0
KAD1 122016Z 18015G20KT 07/M14 A3014 RMK A01 T00721139  RH  021%=      5-min Rain = 0
KAD1 122017Z 17017KT 08/M14 A3014 RMK A01 T00751137  RH  021%=      5-min Rain = 0
KAD1 122018Z 17017G31KT 08/M14 A3014 RMK A01 T00751141  RH  020%=      5-min Rain = 0
KAD1 122019Z 18019G32KT 07/M14 A3014 RMK A01 T00731141  RH  020%=      5-min Rain = 0
KAD1 122020Z 19018KT 08/M14 A3014 RMK A01 T00761138  RH  020%=      5-min Rain = 0
KAD1 122021Z 18016KT 07/M14 A3014 RMK A01 T00741140  RH  020%=      5-min Rain = 0
KAD1 122022Z 18017KT 07/M14 A3014 RMK A01 T00731139  RH  021%=      5-min Rain = 0
KAD1 122023Z 17017KT 07/M14 A3014 RMK A01 T00731138  RH  021%=      5-min Rain = 0
KAD1 122024Z 18021G26KT 07/M14 A3014 RMK A01 T00721140  RH  021%=      5-min Rain = 0
KAD1 122025Z 17020KT 07/M14 A3014 RMK A01 T00731138  RH  021%=      5-min Rain = 0
KAD1 122026Z 18020KT 08/M14 A3014 RMK A01 T00751138  RH  020%=      5-min Rain = 0
KAD1 122027Z 18019KT 07/M14 A3014 RMK A01 T00741139  RH  020%=      5-min Rain = 0
KAD1 122028Z 18017KT 08/M14 A3014 RMK A01 T00791135  RH  020%=      5-min Rain = 0
KAD1 122029Z 17018KT 08/M14 A3013 RMK A01 T00791136  RH  020%=      5-min Rain = 0
KAD1 122030Z 18019KT 08/M14 A3013 RMK A01 T00801137  RH  020%=      5-min Rain = 0
KAD1 122031Z 19017KT 08/M13 A3013 RMK A01 T00791134  RH  020%=      5-min Rain = 0
KAD1 122032Z 18017KT 08/M13 A3013 RMK A01 T00781134  RH  021%=      5-min Rain = 0
KAD1 122033Z 18017KT 08/M14 A3013 RMK A01 T00751138  RH  020%=      5-min Rain = 0
KAD1 122034Z 16019KT 08/M14 A3013 RMK A01 T00751138  RH  020%=      5-min Rain = 0
KAD1 122035Z 16021KT 08/M14 A3013 RMK A01 T00761138  RH  020%=      5-min Rain = 0
KAD1 122036Z 16021KT 08/M14 A3013 RMK A01 T00751140  RH  020%=      5-min Rain = 0
KAD1 122037Z 17017KT 08/M14 A3013 RMK A01 T00751139  RH  020%=      5-min Rain = 0
KAD1 122038Z 17019G25KT 08/M14 A3013 RMK A01 T00751138  RH  020%=      5-min Rain = 0
KAD1 122039Z 18020G26KT 08/M14 A3013 RMK A01 T00771136  RH  020%=      5-min Rain = 0
KAD1 122040Z 16016KT 08/M13 A3013 RMK A01 T00801133  RH  021%=      5-min Rain = 0
KAD1 122041Z 17019KT 08/M13 A3013 RMK A01 T00811133  RH  020%=      5-min Rain = 0
KAD1 122042Z 18016KT 08/M13 A3013 RMK A01 T00811133  RH  020%=      5-min Rain = 0
KAD1 122043Z 19016KT 09/M13 A3013 RMK A01 T00851132  RH  020%=      5-min Rain = 0
KAD1 122044Z 18015G20KT 08/M14 A3013 RMK A01 T00841135  RH  020%=      5-min Rain = 0
KAD1 122045Z 18019G24KT 08/M14 A3013 RMK A01 T00821136  RH  020%=      5-min Rain = 0
KAD1 122046Z 18019KT 08/M14 A3013 RMK A01 T00821136  RH  020%=      5-min Rain = 0
KAD1 122047Z 18017KT 08/M14 A3013 RMK A01 T00811138  RH  020%=      5-min Rain = 0
KAD1 122048Z 17018G23KT 08/M14 A3013 RMK A01 T00791140  RH  020%=      5-min Rain = 0
KAD1 122049Z 17018KT 08/M14 A3013 RMK A01 T00811137  RH  020%=      5-min Rain = 0
KAD1 122050Z 18017KT 08/M14 A3013 RMK A01 T00841135  RH  020%=      5-min Rain = 0
KAD1 122051Z 18023G28KT 09/M14 A3013 RMK A01 T00851135  RH  020%=      5-min Rain = 0
KAD1 122052Z 17018G24KT 08/M14 A3013 RMK A01 T00811135  RH  020%=      5-min Rain = 0
KAD1 122053Z 18017G25KT 08/M13 A3013 RMK A01 T00801133  RH  021%=      5-min Rain = 0
KAD1 122054Z 18021KT 08/M13 A3013 RMK A01 T00801132  RH  021%=      5-min Rain = 0
KAD1 122055Z 17021KT 08/M13 A3013 RMK A01 T00801132  RH  021%=      5-min Rain = 0
KAD1 122056Z 16022KT 08/M13 A3013 RMK A01 T00791134  RH  021%=      5-min Rain = 0
KAD1 122057Z 16024KT 08/M14 A3012 RMK A01 T00761136  RH  021%=      5-min Rain = 0
KAD1 122058Z 18020KT 08/M14 A3012 RMK A01 T00761135  RH  021%=      5-min Rain = 0
KAD1 122059Z 19018KT 08/M14 A3012 RMK A01 T00751136  RH  021%=      5-min Rain = 0
KAD1 122100Z 19021KT 08/M13 A3012 RMK A01 T00751134  RH  021%=      5-min Rain = 0
KAD1 122101Z 17019G24KT 08/M13 A3013 RMK A01 T00781130  RH  021%=      5-min Rain = 0
KAD1 122102Z 17019KT 08/M13 A3012 RMK A01 T00791133  RH  021%=      5-min Rain = 0
KAD1 122103Z 16016KT 08/M14 A3013 RMK A01 T00781135  RH  021%=      5-min Rain = 0
KAD1 122104Z 18016KT 08/M13 A3012 RMK A01 T00791132  RH  021%=      5-min Rain = 0
KAD1 122105Z 17021KT 08/M13 A3012 RMK A01 T00801131  RH  021%=      5-min Rain = 0
KAD1 122106Z 17017KT 08/M13 A3012 RMK A01 T00791128  RH  021%=      5-min Rain = 0
KAD1 122107Z 16018KT 08/M13 A3012 RMK A01 T00811128  RH  021%=      5-min Rain = 0
KAD1 122108Z 17016KT 08/M13 A3012 RMK A01 T00781131  RH  021%=      5-min Rain = 0
KAD1 122109Z 18018G23KT 08/M13 A3012 RMK A01 T00771130  RH  021%=      5-min Rain = 0
KAD1 122110Z 18023KT 08/M13 A3012 RMK A01 T00791127  RH  022%=      5-min Rain = 0
KAD1 122111Z 17019KT 08/M13 A3013 RMK A01 T00771128  RH  022%=      5-min Rain = 0
KAD1 122112Z 18018G23KT 08/M13 A3013 RMK A01 T00771128  RH  022%=      5-min Rain = 0
KAD1 122113Z 18016G22KT 08/M13 A3013 RMK A01 T00761128  RH  022%=      5-min Rain = 0
KAD1 122114Z 18019KT 08/M13 A3012 RMK A01 T00781129  RH  022%=      5-min Rain = 0
KAD1 122115Z 17016KT 08/M13 A3012 RMK A01 T00761132  RH  021%=      5-min Rain = 0
KAD1 122116Z 17020KT 08/M13 A3012 RMK A01 T00771131  RH  021%=      5-min Rain = 0
KAD1 122117Z 17017KT 08/M13 A3012 RMK A01 T00781130  RH  021%=      5-min Rain = 0
KAD1 122118Z 17019KT 08/M13 A3012 RMK A01 T00801128  RH  021%=      5-min Rain = 0
KAD1 122119Z 16021KT 08/M13 A3012 RMK A01 T00791133  RH  021%=      5-min Rain = 0
KAD1 122120Z 16022KT 08/M13 A3012 RMK A01 T00771134  RH  021%=      5-min Rain = 0
KAD1 122121Z 16022KT 08/M13 A3012 RMK A01 T00761133  RH  021%=      5-min Rain = 0
KAD1 122122Z 15017KT 08/M13 A3012 RMK A01 T00751133  RH  021%=      5-min Rain = 0
KAD1 122123Z 17018KT 07/M13 A3012 RMK A01 T00741133  RH  021%=      5-min Rain = 0
KAD1 122124Z 17023KT 08/M13 A3012 RMK A01 T00761130  RH  022%=      5-min Rain = 0
KAD1 122125Z 17022G27KT 08/M13 A3012 RMK A01 T00761133  RH  021%=      5-min Rain = 0
KAD1 122126Z 17015G20KT 07/M13 A3012 RMK A01 T00741134  RH  021%=      5-min Rain = 0
KAD1 122127Z 18016KT 08/M13 A3012 RMK A01 T00761133  RH  021%=      5-min Rain = 0
KAD1 122128Z 17017KT 08/M13 A3012 RMK A01 T00751134  RH  021%=      5-min Rain = 0
KAD1 122129Z 18017KT 08/M13 A3012 RMK A01 T00751134  RH  021%=      5-min Rain = 0
KAD1 122130Z 17018KT 08/M13 A3012 RMK A01 T00791130  RH  021%=      5-min Rain = 0
KAD1 122131Z 17015KT 08/M13 A3011 RMK A01 T00801131  RH  021%=      5-min Rain = 0
KAD1 122132Z 17018KT 08/M13 A3012 RMK A01 T00831131  RH  021%=      5-min Rain = 0
KAD1 122133Z 16020KT 08/M13 A3011 RMK A01 T00811134  RH  020%=      5-min Rain = 0
KAD1 122134Z 17017KT 08/M13 A3012 RMK A01 T00801133  RH  021%=      5-min Rain = 0
KAD1 122135Z 17020KT 08/M13 A3012 RMK A01 T00811131  RH  021%=      5-min Rain = 0
KAD1 122136Z 18021KT 08/M13 A3012 RMK A01 T00831128  RH  021%=      5-min Rain = 0
KAD1 122137Z 17018KT 08/M13 A3012 RMK A01 T00831126  RH  021%=      5-min Rain = 0
KAD1 122138Z 17018KT 08/M13 A3012 RMK A01 T00831127  RH  021%=      5-min Rain = 0
KAD1 122139Z 18016KT 08/M13 A3012 RMK A01 T00821126  RH  021%=      5-min Rain = 0
KAD1 122140Z 17020KT 08/M13 A3012 RMK A01 T00841126  RH  021%=      5-min Rain = 0
KAD1 122141Z 17020KT 08/M13 A3012 RMK A01 T00831129  RH  021%=      5-min Rain = 0
KAD1 122142Z 17019KT 08/M13 A3012 RMK A01 T00811130  RH  021%=      5-min Rain = 0
KAD1 122143Z 17023KT 08/M13 A3011 RMK A01 T00811128  RH  021%=      5-min Rain = 0
KAD1 122144Z 17022KT 08/M13 A3011 RMK A01 T00821127  RH  021%=      5-min Rain = 0
KAD1 122145Z 17017KT 08/M13 A3012 RMK A01 T00821128  RH  021%=      5-min Rain = 0
KAD1 122146Z 17015KT 08/M13 A3011 RMK A01 T00821128  RH  021%=      5-min Rain = 0
KAD1 122147Z 16019G27KT 08/M13 A3011 RMK A01 T00831127  RH  021%=      5-min Rain = 0
KAD1 122148Z 18023KT 08/M12 A3011 RMK A01 T00841124  RH  021%=      5-min Rain = 0
KAD1 122149Z 17020KT 08/M12 A3011 RMK A01 T00831123  RH  022%=      5-min Rain = 0
KAD1 122150Z 17019G24KT 08/M12 A3011 RMK A01 T00821124  RH  022%=      5-min Rain = 0
KAD1 122151Z 17022KT 08/M13 A3011 RMK A01 T00831125  RH  021%=      5-min Rain = 0
KAD1 122152Z 17020KT 08/M13 A3011 RMK A01 T00821126  RH  021%=      5-min Rain = 0
KAD1 122153Z 17023G28KT 08/M12 A3011 RMK A01 T00811124  RH  022%=      5-min Rain = 0
KAD1 122154Z 17023KT 08/M12 A3011 RMK A01 T00801123  RH  022%=      5-min Rain = 0
KAD1 122155Z 17024KT 08/M12 A3011 RMK A01 T00801121  RH  023%=      5-min Rain = 0
KAD1 122156Z 17018G23KT 08/M12 A3011 RMK A01 T00791121  RH  023%=      5-min Rain = 0
KAD1 122157Z 17018KT 08/M12 A3011 RMK A01 T00811121  RH  023%=      5-min Rain = 0
KAD1 122158Z 17020KT 08/M12 A3011 RMK A01 T00821122  RH  022%=      5-min Rain = 0
KAD1 122159Z 18022KT 08/M12 A3011 RMK A01 T00811122  RH  022%=      5-min Rain = 0
KAD1 122200Z 17020KT 08/M12 A3011 RMK A01 T00791123  RH  022%=      5-min Rain = 0
KAD1 122201Z 18021KT 08/M12 A3011 RMK A01 T00791121  RH  023%=      5-min Rain = 0
KAD1 122202Z 17022KT 08/M12 A3011 RMK A01 T00801120  RH  023%=      5-min Rain = 0
KAD1 122203Z 17023KT 08/M12 A3011 RMK A01 T00791121  RH  023%=      5-min Rain = 0
KAD1 122204Z 17021KT 08/M12 A3011 RMK A01 T00771121  RH  023%=      5-min Rain = 0
KAD1 122205Z 17021KT 08/M12 A3011 RMK A01 T00771121  RH  023%=      5-min Rain = 0
KAD1 122206Z 16019KT 08/M12 A3011 RMK A01 T00771123  RH  023%=      5-min Rain = 0
KAD1 122207Z 17017KT 08/M13 A3011 RMK A01 T00761125  RH  022%=      5-min Rain = 0
KAD1 122208Z 16017KT 08/M12 A3011 RMK A01 T00771124  RH  022%=      5-min Rain = 0
KAD1 122209Z 17019KT 08/M13 A3011 RMK A01 T00781125  RH  022%=      5-min Rain = 0
KAD1 122210Z 17018KT 08/M13 A3011 RMK A01 T00781126  RH  022%=      5-min Rain = 0
KAD1 122211Z 17019KT 08/M12 A3011 RMK A01 T00781124  RH  022%=      5-min Rain = 0
KAD1 122212Z 18019KT 08/M12 A3011 RMK A01 T00801122  RH  022%=      5-min Rain = 0
KAD1 122213Z 18019KT 08/M12 A3011 RMK A01 T00801121  RH  023%=      5-min Rain = 0
KAD1 122214Z 18017KT 08/M12 A3011 RMK A01 T00791122  RH  023%=      5-min Rain = 0
KAD1 122215Z 17017KT 08/M12 A3011 RMK A01 T00791123  RH  022%=      5-min Rain = 0
KAD1 122216Z 17017KT 08/M12 A3011 RMK A01 T00801123  RH  022%=      5-min Rain = 0
KAD1 122217Z 17020KT 08/M12 A3011 RMK A01 T00801123  RH  022%=      5-min Rain = 0
KAD1 122218Z 18019KT 08/M12 A3011 RMK A01 T00801122  RH  022%=      5-min Rain = 0
KAD1 122219Z 18020KT 08/M12 A3011 RMK A01 T00811123  RH  022%=      5-min Rain = 0
KAD1 122220Z 18018KT 08/M13 A3011 RMK A01 T00791125  RH  022%=      5-min Rain = 0
KAD1 122221Z 18015G21KT 08/M12 A3011 RMK A01 T00771124  RH  022%=      5-min Rain = 0
KAD1 122222Z 17017KT 08/M12 A3011 RMK A01 T00781123  RH  023%=      5-min Rain = 0
KAD1 122223Z 17019KT 08/M12 A3011 RMK A01 T00791121  RH  023%=      5-min Rain = 0
KAD1 122224Z 17022KT 08/M12 A3011 RMK A01 T00791121  RH  023%=      5-min Rain = 0
KAD1 122225Z 17020KT 08/M12 A3011 RMK A01 T00791121  RH  023%=      5-min Rain = 0
KAD1 122226Z 17015KT 08/M12 A3011 RMK A01 T00781122  RH  023%=      5-min Rain = 0
KAD1 122227Z 17016KT 08/M12 A3011 RMK A01 T00791122  RH  023%=      5-min Rain = 0
KAD1 122228Z 17018KT 08/M12 A3011 RMK A01 T00781123  RH  023%=      5-min Rain = 0
KAD1 122229Z 17016G23KT 08/M13 A3011 RMK A01 T00771125  RH  022%=      5-min Rain = 0
KAD1 122230Z 17017KT 08/M12 A3011 RMK A01 T00771124  RH  023%=      5-min Rain = 0
KAD1 122231Z 17017KT 08/M12 A3011 RMK A01 T00771123  RH  023%=      5-min Rain = 0
KAD1 122232Z 17018KT 08/M12 A3011 RMK A01 T00771123  RH  023%=      5-min Rain = 0
KAD1 122233Z 18020KT 08/M12 A3011 RMK A01 T00771123  RH  023%=      5-min Rain = 0
KAD1 122234Z 17015KT 08/M12 A3011 RMK A01 T00771121  RH  023%=      5-min Rain = 0
KAD1 122235Z 17013KT 08/M12 A3011 RMK A01 T00781122  RH  023%=      5-min Rain = 0
KAD1 122236Z 18016KT 08/M12 A3011 RMK A01 T00801122  RH  022%=      5-min Rain = 0
KAD1 122237Z 18014KT 08/M12 A3011 RMK A01 T00801122  RH  023%=      5-min Rain = 0
KAD1 122238Z 17015G22KT 08/M12 A3011 RMK A01 T00811120  RH  023%=      5-min Rain = 0
KAD1 122239Z 17018KT 08/M12 A3011 RMK A01 T00821122  RH  022%=      5-min Rain = 0
KAD1 122240Z 17018KT 08/M13 A3011 RMK A01 T00791126  RH  022%=      5-min Rain = 0
KAD1 122241Z 18018KT 08/M13 A3011 RMK A01 T00771127  RH  022%=      5-min Rain = 0
KAD1 122242Z 17018KT 08/M13 A3011 RMK A01 T00771126  RH  022%=      5-min Rain = 0
KAD1 122243Z 17020KT 08/M12 A3011 RMK A01 T00771123  RH  023%=      5-min Rain = 0
KAD1 122244Z 17019KT 08/M12 A3011 RMK A01 T00771121  RH  023%=      5-min Rain = 0
KAD1 122245Z 17017KT 08/M12 A3011 RMK A01 T00771124  RH  022%=      5-min Rain = 0
KAD1 122246Z 16018KT 08/M13 A3011 RMK A01 T00781126  RH  022%=      5-min Rain = 0
KAD1 122247Z 16016KT 08/M13 A3011 RMK A01 T00781127  RH  022%=      5-min Rain = 0
KAD1 122248Z 16017KT 08/M13 A3011 RMK A01 T00781128  RH  022%=      5-min Rain = 0
KAD1 122249Z 17015G22KT 08/M13 A3011 RMK A01 T00791127  RH  022%=      5-min Rain = 0
KAD1 122250Z 17018KT 08/M13 A3011 RMK A01 T00791125  RH  022%=      5-min Rain = 0
KAD1 122251Z 17019KT 08/M12 A3011 RMK A01 T00781124  RH  022%=      5-min Rain = 0
KAD1 122252Z 18018KT 08/M13 A3011 RMK A01 T00771125  RH  022%=      5-min Rain = 0
KAD1 122253Z 17017KT 08/M12 A3011 RMK A01 T00761124  RH  023%=      5-min Rain = 0
KAD1 122254Z 17017KT 08/M12 A3011 RMK A01 T00761123  RH  023%=      5-min Rain = 0
KAD1 122255Z 16016KT 08/M13 A3011 RMK A01 T00751126  RH  022%=      5-min Rain = 0
KAD1 122256Z 15016KT 08/M13 A3011 RMK A01 T00751126  RH  022%=      5-min Rain = 0
KAD1 122257Z 17017G22KT 08/M13 A3011 RMK A01 T00761126  RH  022%=      5-min Rain = 0
KAD1 122258Z 17017KT 08/M12 A3011 RMK A01 T00761122  RH  023%=      5-min Rain = 0
KAD1 122259Z 17017KT 08/M12 A3011 RMK A01 T00771120  RH  023%=      5-min Rain = 0
KAD1 122300Z 18017KT 08/M12 A3011 RMK A01 T00771121  RH  023%=      5-min Rain = 0
KAD1 122301Z 18019KT 08/M12 A3011 RMK A01 T00761122  RH  023%=      5-min Rain = 0
KAD1 122302Z 17019KT 08/M12 A3011 RMK A01 T00761123  RH  023%=      5-min Rain = 0
KAD1 122303Z 17015KT 08/M13 A3011 RMK A01 T00751125  RH  023%=      5-min Rain = 0
KAD1 122304Z 16018KT 08/M13 A3011 RMK A01 T00751125  RH  023%=      5-min Rain = 0
KAD1 122305Z 17018KT 08/M12 A3011 RMK A01 T00751124  RH  023%=      5-min Rain = 0
KAD1 122306Z 17019KT 08/M12 A3011 RMK A01 T00751123  RH  023%=      5-min Rain = 0
KAD1 122307Z 16016KT 07/M12 A3011 RMK A01 T00741123  RH  023%=      5-min Rain = 0
KAD1 122308Z 17017KT 07/M12 A3011 RMK A01 T00741122  RH  023%=      5-min Rain = 0
KAD1 122309Z 16017KT 07/M12 A3011 RMK A01 T00731123  RH  023%=      5-min Rain = 0
KAD1 122310Z 17019KT 07/M12 A3011 RMK A01 T00721123  RH  024%=      5-min Rain = 0
KAD1 122311Z 17017KT 07/M12 A3011 RMK A01 T00721123  RH  023%=      5-min Rain = 0
KAD1 122312Z 17016KT 07/M13 A3011 RMK A01 T00721125  RH  023%=      5-min Rain = 0
KAD1 122313Z 16018KT 07/M13 A3011 RMK A01 T00721126  RH  023%=      5-min Rain = 0
KAD1 122314Z 16019KT 07/M13 A3011 RMK A01 T00721127  RH  023%=      5-min Rain = 0
KAD1 122315Z 16016KT 07/M13 A3011 RMK A01 T00711127  RH  023%=      5-min Rain = 0
KAD1 122316Z 17017KT 07/M13 A3011 RMK A01 T00711127  RH  023%=      5-min Rain = 0
KAD1 122317Z 17014KT 07/M13 A3011 RMK A01 T00711127  RH  023%=      5-min Rain = 0
KAD1 122318Z 16015G20KT 07/M13 A3011 RMK A01 T00721126  RH  023%=      5-min Rain = 0
KAD1 122319Z 17016KT 07/M13 A3011 RMK A01 T00711127  RH  023%=      5-min Rain = 0
KAD1 122320Z 16013G18KT 07/M13 A3011 RMK A01 T00711127  RH  023%=      5-min Rain = 0
KAD1 122321Z 16014KT 07/M13 A3011 RMK A01 T00711126  RH  023%=      5-min Rain = 0
KAD1 122322Z 16014KT 07/M13 A3011 RMK A01 T00711126  RH  023%=      5-min Rain = 0
KAD1 122323Z 16014KT 07/M13 A3011 RMK A01 T00711126  RH  023%=      5-min Rain = 0
KAD1 122324Z 16017KT 07/M13 A3011 RMK A01 T00711126  RH  023%=      5-min Rain = 0
KAD1 122325Z 16019KT 07/M13 A3011 RMK A01 T00701126  RH  023%=      5-min Rain = 0
KAD1 122326Z 16020KT 07/M13 A3011 RMK A01 T00691127  RH  023%=      5-min Rain = 0
KAD1 122327Z 17018KT 07/M13 A3011 RMK A01 T00681127  RH  023%=      5-min Rain = 0
KAD1 122328Z 16016KT 07/M13 A3011 RMK A01 T00681126  RH  024%=      5-min Rain = 0
KAD1 122329Z 16015G20KT 07/M13 A3011 RMK A01 T00681125  RH  024%=      5-min Rain = 0
KAD1 122330Z 17016KT 07/M12 A3011 RMK A01 T00681124  RH  024%=      5-min Rain = 0
KAD1 122331Z 17017KT 07/M12 A3011 RMK A01 T00681124  RH  024%=      5-min Rain = 0
KAD1 122332Z 16016KT 07/M12 A3011 RMK A01 T00671123  RH  024%=      5-min Rain = 0
KAD1 122333Z 16017G22KT 07/M12 A3012 RMK A01 T00671123  RH  024%=      5-min Rain = 0
KAD1 122334Z 16017KT 07/M12 A3012 RMK A01 T00661123  RH  025%=      5-min Rain = 0
KAD1 122335Z 16018KT 07/M12 A3012 RMK A01 T00661122  RH  025%=      5-min Rain = 0
KAD1 122336Z 16018KT 07/M12 A3012 RMK A01 T00651122  RH  025%=      5-min Rain = 0
KAD1 122337Z 16018KT 07/M12 A3012 RMK A01 T00651122  RH  025%=      5-min Rain = 0
KAD1 122338Z 16016KT 06/M12 A3012 RMK A01 T00641122  RH  025%=      5-min Rain = 0
KAD1 122339Z 16016KT 06/M12 A3012 RMK A01 T00641122  RH  025%=      5-min Rain = 0
KAD1 122340Z 16015KT 06/M12 A3012 RMK A01 T00641122  RH  025%=      5-min Rain = 0
KAD1 122341Z 16014KT 06/M12 A3012 RMK A01 T00631122  RH  025%=      5-min Rain = 0
KAD1 122342Z 17014KT 06/M12 A3012 RMK A01 T00631122  RH  025%=      5-min Rain = 0
KAD1 122343Z 17016G21KT 06/M12 A3012 RMK A01 T00631122  RH  025%=      5-min Rain = 0
KAD1 122344Z 17016KT 06/M12 A3012 RMK A01 T00631122  RH  025%=      5-min Rain = 0
KAD1 122345Z 16016KT 06/M12 A3012 RMK A01 T00621123  RH  025%=      5-min Rain = 0
KAD1 122346Z 16013KT 06/M12 A3012 RMK A01 T00621122  RH  025%=      5-min Rain = 0
KAD1 122347Z 16014KT 06/M12 A3012 RMK A01 T00611123  RH  025%=      5-min Rain = 0
KAD1 122348Z 16014KT 06/M12 A3012 RMK A01 T00601123  RH  025%=      5-min Rain = 0
KAD1 122349Z 16015KT 06/M12 A3012 RMK A01 T00601123  RH  026%=      5-min Rain = 0
KAD1 122350Z 16015KT 06/M12 A3012 RMK A01 T00601122  RH  026%=      5-min Rain = 0
KAD1 122351Z 16016KT 06/M12 A3012 RMK A01 T00591123  RH  026%=      5-min Rain = 0
KAD1 122352Z 17014KT 06/M12 A3012 RMK A01 T00591123  RH  026%=      5-min Rain = 0
KAD1 122353Z 16016KT 06/M12 A3012 RMK A01 T00591123  RH  026%=      5-min Rain = 0
KAD1 122354Z 16016KT 06/M12 A3013 RMK A01 T00591122  RH  026%=      5-min Rain = 0
KAD1 122355Z 16015KT 06/M12 A3013 RMK A01 T00591122  RH  026%=      5-min Rain = 0
KAD1 122356Z 16014KT 06/M12 A3013 RMK A01 T00581123  RH  026%=      5-min Rain = 0
KAD1 122357Z 16013KT 06/M12 A3013 RMK A01 T00581124  RH  026%=      5-min Rain = 0
KAD1 122358Z 15014KT 06/M12 A3012 RMK A01 T00571124  RH  026%=      5-min Rain = 0
KAD1 122359Z 15014KT 06/M12 A3012 RMK A01 T00571123  RH  026%=      5-min Rain = 0
KAD1 130000Z 16012KT 06/M12 A3012 RMK A01 T00561123  RH  026%=      5-min Rain = 0
KAD1 130001Z 16014KT 06/M12 A3012 RMK A01 T00561123  RH  026%=      5-min Rain = 0
KAD1 130002Z 16014KT 06/M12 A3012 RMK A01 T00551123  RH  026%=      5-min Rain = 0
KAD1 130003Z 16013KT 06/M12 A3013 RMK A01 T00551122  RH  026%=      5-min Rain = 0
KAD1 130004Z 16014KT 06/M12 A3013 RMK A01 T00551123  RH  027%=      5-min Rain = 0
KAD1 130005Z 16014KT 06/M12 A3013 RMK A01 T00551122  RH  027%=      5-min Rain = 0
KAD1 130006Z 16012KT 06/M12 A3013 RMK A01 T00551123  RH  027%=      5-min Rain = 0
KAD1 130007Z 16012KT 05/M12 A3013 RMK A01 T00541122  RH  027%=      5-min Rain = 0
KAD1 130008Z 16012KT 05/M12 A3013 RMK A01 T00541122  RH  027%=      5-min Rain = 0
KAD1 130009Z 16013KT 05/M12 A3013 RMK A01 T00531123  RH  027%=      5-min Rain = 0
KAD1 130010Z 16014KT 05/M12 A3013 RMK A01 T00521123  RH  027%=      5-min Rain = 0
KAD1 130011Z 15012KT 05/M12 A3013 RMK A01 T00531122  RH  027%=      5-min Rain = 0
KAD1 130012Z 15011KT 05/M12 A3013 RMK A01 T00521123  RH  027%=      5-min Rain = 0
KAD1 130013Z 15011KT 05/M12 A3013 RMK A01 T00511123  RH  027%=      5-min Rain = 0
KAD1 130014Z 15011KT 05/M12 A3013 RMK A01 T00511123  RH  027%=      5-min Rain = 0
KAD1 130015Z 15010KT 05/M12 A3013 RMK A01 T00501124  RH  027%=      5-min Rain = 0
KAD1 130016Z 15012KT 05/M12 A3013 RMK A01 T00491124  RH  027%=      5-min Rain = 0
KAD1 130017Z 15011KT 05/M12 A3013 RMK A01 T00481124  RH  027%=      5-min Rain = 0
KAD1 130018Z 15012KT 05/M12 A3013 RMK A01 T00481124  RH  028%=      5-min Rain = 0
KAD1 130019Z 15013KT 05/M12 A3013 RMK A01 T00471124  RH  028%=      5-min Rain = 0
KAD1 130020Z 15013KT 05/M12 A3013 RMK A01 T00471123  RH  028%=      5-min Rain = 0
KAD1 130021Z 15014KT 05/M12 A3013 RMK A01 T00471123  RH  028%=      5-min Rain = 0
KAD1 130022Z 15013KT 05/M12 A3013 RMK A01 T00461123  RH  028%=      5-min Rain = 0
KAD1 130023Z 15014KT 05/M12 A3013 RMK A01 T00461122  RH  028%=      5-min Rain = 0
KAD1 130024Z 15012KT 05/M12 A3013 RMK A01 T00461122  RH  028%=      5-min Rain = 0
KAD1 130025Z 15013KT 05/M12 A3013 RMK A01 T00451123  RH  028%=      5-min Rain = 0
KAD1 130026Z 15013KT 04/M12 A3013 RMK A01 T00441123  RH  029%=      5-min Rain = 0
KAD1 130027Z 15013KT 04/M12 A3013 RMK A01 T00431122  RH  029%=      5-min Rain = 0
KAD1 130028Z 15013KT 04/M12 A3013 RMK A01 T00431123  RH  029%=      5-min Rain = 0
KAD1 130029Z 15013KT 04/M12 A3013 RMK A01 T00421122  RH  029%=      5-min Rain = 0
KAD1 130030Z 15013KT 04/M12 A3013 RMK A01 T00421122  RH  029%=      5-min Rain = 0
KAD1 130031Z 15013KT 04/M12 A3013 RMK A01 T00411122  RH  029%=      5-min Rain = 0
KAD1 130032Z 15012KT 04/M12 A3013 RMK A01 T00411121  RH  029%=      5-min Rain = 0
KAD1 130033Z 15013KT 04/M12 A3013 RMK A01 T00411122  RH  029%=      5-min Rain = 0
KAD1 130034Z 15012KT 04/M12 A3013 RMK A01 T00411121  RH  030%=      5-min Rain = 0
KAD1 130035Z 15012KT 04/M12 A3013 RMK A01 T00401121  RH  030%=      5-min Rain = 0
KAD1 130036Z 15013KT 04/M12 A3013 RMK A01 T00401121  RH  030%=      5-min Rain = 0
KAD1 130037Z 15012KT 04/M12 A3014 RMK A01 T00401121  RH  030%=      5-min Rain = 0
KAD1 130038Z 15011KT 04/M12 A3014 RMK A01 T00401121  RH  030%=      5-min Rain = 0
KAD1 130039Z 15012KT 04/M12 A3014 RMK A01 T00391122  RH  030%=      5-min Rain = 0
KAD1 130040Z 14011KT 04/M12 A3014 RMK A01 T00381122  RH  030%=      5-min Rain = 0
KAD1 130041Z 14011KT 04/M12 A3014 RMK A01 T00371122  RH  030%=      5-min Rain = 0
KAD1 130042Z 14011KT 04/M12 A3014 RMK A01 T00371122  RH  030%=      5-min Rain = 0
KAD1 130043Z 14011KT 04/M12 A3014 RMK A01 T00371121  RH  030%=      5-min Rain = 0
KAD1 130044Z 14011KT 04/M12 A3014 RMK A01 T00371121  RH  031%=      5-min Rain = 0
KAD1 130045Z 14009KT 04/M12 A3014 RMK A01 T00371121  RH  031%=      5-min Rain = 0
KAD1 130046Z 14009KT 04/M12 A3014 RMK A01 T00371121  RH  031%=      5-min Rain = 0
KAD1 130047Z 13008KT 04/M12 A3014 RMK A01 T00361122  RH  031%=      5-min Rain = 0
KAD1 130048Z 13008KT 04/M12 A3014 RMK A01 T00351122  RH  031%=      5-min Rain = 0
KAD1 130049Z 12008KT 03/M12 A3014 RMK A01 T00341122  RH  031%=      5-min Rain = 0
KAD1 130050Z 12008KT 03/M12 A3014 RMK A01 T00331123  RH  031%=      5-min Rain = 0
KAD1 130051Z 12008KT 03/M12 A3014 RMK A01 T00321123  RH  031%=      5-min Rain = 0
KAD1 130052Z 12008KT 03/M12 A3014 RMK A01 T00321122  RH  031%=      5-min Rain = 0
KAD1 130053Z 12008KT 03/M12 A3014 RMK A01 T00311123  RH  031%=      5-min Rain = 0
KAD1 130054Z 11008KT 03/M12 A3014 RMK A01 T00311123  RH  031%=      5-min Rain = 0
KAD1 130055Z 12009KT 03/M12 A3014 RMK A01 T00311122  RH  032%=      5-min Rain = 0
KAD1 130056Z 12009KT 03/M12 A3014 RMK A01 T00301122  RH  032%=      5-min Rain = 0
KAD1 130057Z 12009KT 03/M12 A3014 RMK A01 T00301123  RH  032%=      5-min Rain = 0
KAD1 130058Z 12009KT 03/M12 A3014 RMK A01 T00291123  RH  032%=      5-min Rain = 0
KAD1 130059Z 12010KT 03/M12 A3015 RMK A01 T00291122  RH  032%=      5-min Rain = 0
KAD1 130100Z 12009KT 03/M12 A3015 RMK A01 T00281123  RH  032%=      5-min Rain = 0
KAD1 130101Z 12010KT 03/M12 A3015 RMK A01 T00281123  RH  032%=      5-min Rain = 0
KAD1 130102Z 13010KT 03/M12 A3015 RMK A01 T00271123  RH  032%=      5-min Rain = 0
KAD1 130103Z 13010KT 03/M12 A3015 RMK A01 T00271122  RH  032%=      5-min Rain = 0
KAD1 130104Z 13010KT 03/M12 A3015 RMK A01 T00271122  RH  033%=      5-min Rain = 0
KAD1 130105Z 13010KT 03/M12 A3015 RMK A01 T00261121  RH  033%=      5-min Rain = 0
KAD1 130106Z 13010KT 03/M12 A3015 RMK A01 T00271121  RH  033%=      5-min Rain = 0
KAD1 130107Z 13010KT 03/M12 A3015 RMK A01 T00271121  RH  033%=      5-min Rain = 0
KAD1 130108Z 13010KT 03/M12 A3015 RMK A01 T00271120  RH  033%=      5-min Rain = 0
KAD1 130109Z 13010KT 03/M12 A3015 RMK A01 T00261121  RH  033%=      5-min Rain = 0
KAD1 130110Z 13010KT 03/M12 A3015 RMK A01 T00261121  RH  033%=      5-min Rain = 0
KAD1 130111Z 13010KT 03/M12 A3015 RMK A01 T00251121  RH  033%=      5-min Rain = 0
KAD1 130112Z 13011KT 02/M12 A3015 RMK A01 T00241121  RH  033%=      5-min Rain = 0
KAD1 130113Z 13011KT 02/M12 A3015 RMK A01 T00241121  RH  033%=      5-min Rain = 0
KAD1 130114Z 14011KT 02/M12 A3015 RMK A01 T00241121  RH  034%=      5-min Rain = 0
KAD1 130115Z 14012KT 02/M12 A3014 RMK A01 T00241121  RH  034%=      5-min Rain = 0
KAD1 130116Z 14013KT 02/M12 A3015 RMK A01 T00241120  RH  034%=      5-min Rain = 0
KAD1 130117Z 14012KT 02/M12 A3015 RMK A01 T00241120  RH  034%=      5-min Rain = 0
KAD1 130118Z 15013KT 03/M12 A3015 RMK A01 T00251120  RH  034%=      5-min Rain = 0
KAD1 130119Z 15013KT 02/M12 A3015 RMK A01 T00241120  RH  034%=      5-min Rain = 0
KAD1 130120Z 15013KT 03/M12 A3015 RMK A01 T00251119  RH  034%=      5-min Rain = 0
KAD1 130121Z 15012KT 03/M12 A3015 RMK A01 T00261118  RH  034%=      5-min Rain = 0
KAD1 130122Z 15013KT 03/M12 A3015 RMK A01 T00261118  RH  034%=      5-min Rain = 0
KAD1 130123Z 15013KT 03/M12 A3015 RMK A01 T00261118  RH  034%=      5-min Rain = 0
KAD1 130124Z 15014KT 03/M12 A3015 RMK A01 T00261118  RH  034%=      5-min Rain = 0
KAD1 130125Z 15014KT 03/M12 A3015 RMK A01 T00261117  RH  034%=      5-min Rain = 0
KAD1 130126Z 15013KT 03/M12 A3015 RMK A01 T00261117  RH  034%=      5-min Rain = 0
KAD1 130127Z 15013KT 03/M12 A3015 RMK A01 T00261117  RH  034%=      5-min Rain = 0
KAD1 130128Z 15013KT 03/M12 A3015 RMK A01 T00261117  RH  034%=      5-min Rain = 0
KAD1 130129Z 15014KT 03/M12 A3015 RMK A01 T00251117  RH  034%=      5-min Rain = 0
KAD1 130130Z 15015KT 03/M12 A3015 RMK A01 T00251117  RH  034%=      5-min Rain = 0
KAD1 130131Z 15015KT 03/M12 A3015 RMK A01 T00251116  RH  034%=      5-min Rain = 0
KAD1 130132Z 16015KT 03/M12 A3015 RMK A01 T00251116  RH  035%=      5-min Rain = 0
KAD1 130133Z 15013KT 03/M12 A3015 RMK A01 T00251115  RH  035%=      5-min Rain = 0
KAD1 130134Z 16014KT 02/M12 A3015 RMK A01 T00241116  RH  035%=      5-min Rain = 0
KAD1 130135Z 15014KT 02/M12 A3015 RMK A01 T00241116  RH  035%=      5-min Rain = 0
KAD1 130136Z 16014KT 02/M12 A3015 RMK A01 T00241115  RH  035%=      5-min Rain = 0
KAD1 130137Z 16015KT 02/M12 A3015 RMK A01 T00231115  RH  035%=      5-min Rain = 0
KAD1 130138Z 15014KT 02/M12 A3015 RMK A01 T00231115  RH  035%=      5-min Rain = 0
KAD1 130139Z 16014KT 02/M12 A3015 RMK A01 T00231115  RH  035%=      5-min Rain = 0
KAD1 130140Z 15014KT 02/M12 A3015 RMK A01 T00221116  RH  035%=      5-min Rain = 0
KAD1 130141Z 15014KT 02/M12 A3015 RMK A01 T00221115  RH  035%=      5-min Rain = 0
KAD1 130142Z 15013KT 02/M12 A3015 RMK A01 T00221115  RH  036%=      5-min Rain = 0
KAD1 130143Z 15013KT 02/M12 A3015 RMK A01 T00211115  RH  036%=      5-min Rain = 0
KAD1 130144Z 15012KT 02/M12 A3016 RMK A01 T00201116  RH  036%=      5-min Rain = 0
KAD1 130145Z 15012KT 02/M12 A3016 RMK A01 T00191117  RH  036%=      5-min Rain = 0
KAD1 130146Z 15012KT 02/M12 A3016 RMK A01 T00181117  RH  036%=      5-min Rain = 0
KAD1 130147Z 15013KT 02/M12 A3016 RMK A01 T00181116  RH  036%=      5-min Rain = 0
KAD1 130148Z 15012KT 02/M12 A3016 RMK A01 T00181116  RH  036%=      5-min Rain = 0
KAD1 130149Z 15013KT 02/M12 A3016 RMK A01 T00181116  RH  036%=      5-min Rain = 0
KAD1 130150Z 15012KT 02/M12 A3016 RMK A01 T00181116  RH  036%=      5-min Rain = 0
KAD1 130151Z 15012KT 02/M12 A3016 RMK A01 T00181116  RH  036%=      5-min Rain = 0
KAD1 130152Z 15011KT 02/M12 A3016 RMK A01 T00181116  RH  036%=      5-min Rain = 0
KAD1 130153Z 15011KT 02/M12 A3016 RMK A01 T00181117  RH  036%=      5-min Rain = 0
KAD1 130154Z 15011KT 02/M12 A3017 RMK A01 T00171117  RH  036%=      5-min Rain = 0
KAD1 130155Z 15010KT 02/M12 A3017 RMK A01 T00171117  RH  036%=      5-min Rain = 0
KAD1 130156Z 14010KT 02/M12 A3017 RMK A01 T00171117  RH  036%=      5-min Rain = 0
KAD1 130157Z 15010KT 02/M12 A3017 RMK A01 T00161118  RH  036%=      5-min Rain = 0
KAD1 130158Z 15011KT 02/M12 A3017 RMK A01 T00161118  RH  036%=      5-min Rain = 0
KAD1 130159Z 15011KT 02/M12 A3017 RMK A01 T00161117  RH  036%=      5-min Rain = 0
KAD1 130200Z 15010KT 02/M12 A3017 RMK A01 T00161117  RH  036%=      5-min Rain = 0
KAD1 130201Z 15010KT 02/M12 A3017 RMK A01 T00151118  RH  036%=      5-min Rain = 0
KAD1 130202Z 15011KT 02/M12 A3017 RMK A01 T00151118  RH  036%=      5-min Rain = 0
KAD1 130203Z 15011KT 02/M12 A3017 RMK A01 T00151118  RH  037%=      5-min Rain = 0
KAD1 130204Z 15011KT 02/M12 A3018 RMK A01 T00151117  RH  037%=      5-min Rain = 0
KAD1 130205Z 14010KT 02/M12 A3018 RMK A01 T00151117  RH  037%=      5-min Rain = 0
KAD1 130206Z 15011KT 02/M12 A3018 RMK A01 T00151118  RH  037%=      5-min Rain = 0
KAD1 130207Z 15011KT 02/M12 A3018 RMK A01 T00151118  RH  037%=      5-min Rain = 0
KAD1 130208Z 15012KT 01/M12 A3018 RMK A01 T00141118  RH  037%=      5-min Rain = 0
KAD1 130209Z 15012KT 01/M12 A3018 RMK A01 T00141117  RH  037%=      5-min Rain = 0
KAD1 130210Z 15011KT 01/M12 A3018 RMK A01 T00141117  RH  037%=      5-min Rain = 0
KAD1 130211Z 15011KT 01/M12 A3018 RMK A01 T00141117  RH  037%=      5-min Rain = 0
KAD1 130212Z 15011KT 01/M12 A3018 RMK A01 T00141117  RH  037%=      5-min Rain = 0
KAD1 130213Z 15010KT 01/M12 A3018 RMK A01 T00131117  RH  037%=      5-min Rain = 0
KAD1 130214Z 15011KT 01/M12 A3018 RMK A01 T00131118  RH  037%=      5-min Rain = 0
KAD1 130215Z 15010KT 01/M12 A3018 RMK A01 T00131117  RH  037%=      5-min Rain = 0
KAD1 130216Z 15010KT 01/M12 A3018 RMK A01 T00121117  RH  037%=      5-min Rain = 0
KAD1 130217Z 15010KT 01/M12 A3018 RMK A01 T00111118  RH  037%=      5-min Rain = 0
KAD1 130218Z 15010KT 01/M12 A3018 RMK A01 T00111118  RH  038%=      5-min Rain = 0
KAD1 130219Z 15010KT 01/M12 A3018 RMK A01 T00111117  RH  038%=      5-min Rain = 0
KAD1 130220Z 15011KT 01/M12 A3019 RMK A01 T00111117  RH  038%=      5-min Rain = 0
KAD1 130221Z 15009KT 01/M12 A3019 RMK A01 T00121117  RH  038%=      5-min Rain = 0
KAD1 130222Z 16011KT 01/M12 A3019 RMK A01 T00121117  RH  038%=      5-min Rain = 0
KAD1 130223Z 15011KT 01/M12 A3019 RMK A01 T00111117  RH  038%=      5-min Rain = 0
KAD1 130224Z 15010KT 01/M12 A3019 RMK A01 T00111117  RH  038%=      5-min Rain = 0
KAD1 130225Z 15010KT 01/M12 A3019 RMK A01 T00111117  RH  038%=      5-min Rain = 0
KAD1 130226Z 15010KT 01/M12 A3019 RMK A01 T00111117  RH  038%=      5-min Rain = 0
KAD1 130227Z 15010KT 01/M12 A3019 RMK A01 T00101118  RH  038%=      5-min Rain = 0
KAD1 130228Z 15011KT 01/M12 A3019 RMK A01 T00091118  RH  038%=      5-min Rain = 0
KAD1 130229Z 15011KT 01/M12 A3019 RMK A01 T00091118  RH  038%=      5-min Rain = 0
KAD1 130230Z 15012KT 01/M12 A3019 RMK A01 T00081119  RH  038%=      5-min Rain = 0
KAD1 130231Z 15012KT 01/M12 A3019 RMK A01 T00081118  RH  038%=      5-min Rain = 0
KAD1 130232Z 15012KT 01/M12 A3019 RMK A01 T00081119  RH  038%=      5-min Rain = 0
KAD1 130233Z 15012KT 01/M12 A3019 RMK A01 T00071119  RH  038%=      5-min Rain = 0
KAD1 130234Z 15012KT 01/M12 A3019 RMK A01 T00061119  RH  038%=      5-min Rain = 0
KAD1 130235Z 15012KT 01/M12 A3019 RMK A01 T00071119  RH  039%=      5-min Rain = 0
KAD1 130236Z 15012KT 01/M12 A3019 RMK A01 T00071119  RH  039%=      5-min Rain = 0
KAD1 130237Z 15012KT 01/M12 A3019 RMK A01 T00061119  RH  039%=      5-min Rain = 0
KAD1 130238Z 15013KT 01/M12 A3019 RMK A01 T00061119  RH  039%=      5-min Rain = 0
KAD1 130239Z 15012KT 01/M12 A3019 RMK A01 T00061118  RH  039%=      5-min Rain = 0
KAD1 130240Z 15011KT 01/M12 A302 RMK A01 T00061118  RH  039%=      5-min Rain = 0
KAD1 130241Z 15013KT 01/M12 A302 RMK A01 T00061118  RH  039%=      5-min Rain = 0
KAD1 130242Z 15011KT 01/M12 A302 RMK A01 T00061118  RH  039%=      5-min Rain = 0
KAD1 130243Z 15011KT 01/M12 A302 RMK A01 T00051118  RH  039%=      5-min Rain = 0
KAD1 130244Z 15011KT 01/M12 A302 RMK A01 T00051118  RH  039%=      5-min Rain = 0
KAD1 130245Z 15011KT 01/M12 A302 RMK A01 T00051118  RH  039%=      5-min Rain = 0
KAD1 130246Z 15010KT 01/M12 A302 RMK A01 T00051117  RH  039%=      5-min Rain = 0
KAD1 130247Z 15009KT 01/M12 A302 RMK A01 T00051117  RH  039%=      5-min Rain = 0
KAD1 130248Z 15009KT 01/M12 A302 RMK A01 T00051118  RH  039%=      5-min Rain = 0
KAD1 130249Z 15009KT 00/M12 A302 RMK A01 T00041118  RH  039%=      5-min Rain = 0
KAD1 130250Z 15009KT 00/M12 A302 RMK A01 T00031119  RH  040%=      5-min Rain = 0
KAD1 130251Z 15009KT 00/M12 A302 RMK A01 T00011120  RH  040%=      5-min Rain = 0
KAD1 130252Z 15009KT 00/M12 A302 RMK A01 T00011119  RH  040%=      5-min Rain = 0
KAD1 130253Z 15009KT 00/M12 A302 RMK A01 T00011119  RH  040%=      5-min Rain = 0
KAD1 130254Z 15009KT 00/M12 A302 RMK A01 T00011119  RH  040%=      5-min Rain = 0
KAD1 130255Z 15009KT 00/12 A302 RMK A01 T00000-120  RH  040%=      5-min Rain = 0
KAD1 130256Z 15010KT M00/M12 A302 RMK A01 T10011120  RH  040%=      5-min Rain = 0
KAD1 130257Z 15009KT M00/M12 A302 RMK A01 T10011120  RH  041%=      5-min Rain = 0
KAD1 130258Z 15010KT M00/M12 A302 RMK A01 T10011120  RH  041%=      5-min Rain = 0
KAD1 130259Z 15010KT M00/M12 A302 RMK A01 T10021119  RH  041%=      5-min Rain = 0
KAD1 130300Z 15010KT M00/M12 A302 RMK A01 T10011119  RH  041%=      5-min Rain = 0
KAD1 130301Z 15011KT M00/M12 A302 RMK A01 T10011119  RH  041%=      5-min Rain = 0
KAD1 130302Z 15010KT M00/M12 A302 RMK A01 T10011119  RH  041%=      5-min Rain = 0
KAD1 130303Z 15009KT 00/12 A302 RMK A01 T00-00-118  RH  041%=      5-min Rain = 0
KAD1 130304Z 15010KT 00/12 A302 RMK A01 T00-00-119  RH  040%=      5-min Rain = 0
KAD1 130305Z 15011KT M00/M12 A302 RMK A01 T10011119  RH  040%=      5-min Rain = 0
KAD1 130306Z 15011KT M00/M12 A302 RMK A01 T10011119  RH  040%=      5-min Rain = 0
KAD1 130307Z 15011KT M00/M12 A302 RMK A01 T10011119  RH  040%=      5-min Rain = 0
KAD1 130308Z 15012KT M00/M12 A302 RMK A01 T10011120  RH  040%=      5-min Rain = 0
KAD1 130309Z 15011KT M00/M12 A302 RMK A01 T10011120  RH  040%=      5-min Rain = 0
KAD1 130310Z 15012KT M00/M12 A302 RMK A01 T10021120  RH  041%=      5-min Rain = 0
KAD1 130311Z 15012KT M00/M12 A302 RMK A01 T10021120  RH  041%=      5-min Rain = 0
KAD1 130312Z 15013KT M00/M12 A302 RMK A01 T10021120  RH  041%=      5-min Rain = 0
KAD1 130313Z 15013KT M00/M12 A302 RMK A01 T10021120  RH  041%=      5-min Rain = 0
KAD1 130314Z 15013KT M00/M12 A302 RMK A01 T10021119  RH  041%=      5-min Rain = 0
KAD1 130315Z 15015KT M00/M12 A3019 RMK A01 T10021119  RH  041%=      5-min Rain = 0
KAD1 130316Z 15015KT 00/12 A3019 RMK A01 T00000-118  RH  041%=      5-min Rain = 0
KAD1 130317Z 15015KT 00/M12 A3019 RMK A01 T00021117  RH  040%=      5-min Rain = 0
KAD1 130318Z 15015KT 00/M12 A3019 RMK A01 T00021118  RH  040%=      5-min Rain = 0
KAD1 130319Z 15015KT 00/M12 A3019 RMK A01 T00031118  RH  040%=      5-min Rain = 0
KAD1 130320Z 15015KT 00/M12 A3019 RMK A01 T00031118  RH  040%=      5-min Rain = 0
KAD1 130321Z 15015KT 00/M12 A3019 RMK A01 T00031118  RH  040%=      5-min Rain = 0
KAD1 130322Z 15015KT 00/M12 A3019 RMK A01 T00011119  RH  040%=      5-min Rain = 0
KAD1 130323Z 15014KT 00/M12 A3019 RMK A01 T00011119  RH  040%=      5-min Rain = 0
KAD1 130324Z 15014KT 00/12 A3019 RMK A01 T00-00-120  RH  040%=      5-min Rain = 0
KAD1 130325Z 15015KT M00/M12 A3019 RMK A01 T10011120  RH  040%=      5-min Rain = 0
KAD1 130326Z 15015KT M00/M12 A3019 RMK A01 T10011119  RH  041%=      5-min Rain = 0
KAD1 130327Z 15015KT M00/M12 A3019 RMK A01 T10011119  RH  041%=      5-min Rain = 0
KAD1 130328Z 15016KT M00/M12 A3019 RMK A01 T10011119  RH  041%=      5-min Rain = 0
KAD1 130329Z 15016KT M00/M12 A3019 RMK A01 T10011119  RH  041%=      5-min Rain = 0
KAD1 130330Z 15017KT M00/M12 A3019 RMK A01 T10011119  RH  041%=      5-min Rain = 0
KAD1 130331Z 15016KT M00/M12 A3019 RMK A01 T10011118  RH  041%=      5-min Rain = 0
KAD1 130332Z 15016KT M00/M12 A3019 RMK A01 T10011119  RH  041%=      5-min Rain = 0
KAD1 130333Z 15017KT M00/M12 A3019 RMK A01 T10021119  RH  041%=      5-min Rain = 0
KAD1 130334Z 15017KT M00/M12 A3019 RMK A01 T10021119  RH  041%=      5-min Rain = 0
KAD1 130335Z 15017KT M00/M12 A3019 RMK A01 T10021119  RH  041%=      5-min Rain = 0
KAD1 130336Z 15018KT M00/M12 A3019 RMK A01 T10021118  RH  041%=      5-min Rain = 0
KAD1 130337Z 15017KT M00/M12 A3019 RMK A01 T10021118  RH  041%=      5-min Rain = 0
KAD1 130338Z 15018KT M00/M12 A3019 RMK A01 T10021118  RH  041%=      5-min Rain = 0
KAD1 130339Z 15018KT M00/M12 A3019 RMK A01 T10021119  RH  041%=      5-min Rain = 0
KAD1 130340Z 15018KT M00/M12 A3019 RMK A01 T10021118  RH  041%=      5-min Rain = 0
KAD1 130341Z 15017KT M00/M12 A3019 RMK A01 T10021118  RH  041%=      5-min Rain = 0
KAD1 130342Z 15016KT M00/M12 A3019 RMK A01 T10021118  RH  041%=      5-min Rain = 0
KAD1 130343Z 15017KT M00/M12 A3019 RMK A01 T10021119  RH  041%=      5-min Rain = 0
KAD1 130344Z 15018KT M00/M12 A3019 RMK A01 T10031119  RH  041%=      5-min Rain = 0
KAD1 130345Z 15017KT M00/M12 A3019 RMK A01 T10031119  RH  041%=      5-min Rain = 0
KAD1 130346Z 15018KT M00/M12 A3019 RMK A01 T10031119  RH  041%=      5-min Rain = 0
KAD1 130347Z 15018KT M00/M12 A3019 RMK A01 T10021118  RH  041%=      5-min Rain = 0
KAD1 130348Z 15018KT M00/M12 A3019 RMK A01 T10031119  RH  041%=      5-min Rain = 0
KAD1 130349Z 15017KT M00/M12 A3019 RMK A01 T10031119  RH  041%=      5-min Rain = 0
KAD1 130350Z 15017KT M00/M12 A3019 RMK A01 T10031119  RH  041%=      5-min Rain = 0
KAD1 130351Z 15018KT M00/M12 A3019 RMK A01 T10041120  RH  041%=      5-min Rain = 0
KAD1 130352Z 15017KT M01/M12 A3019 RMK A01 T10051120  RH  041%=      5-min Rain = 0
KAD1 130353Z 15017KT M01/M12 A3019 RMK A01 T10051120  RH  042%=      5-min Rain = 0
KAD1 130354Z 15016KT M01/M12 A3019 RMK A01 T10061120  RH  042%=      5-min Rain = 0
KAD1 130355Z 15016KT M01/M12 A3019 RMK A01 T10071120  RH  042%=      5-min Rain = 0
KAD1 130356Z 15017KT M01/M12 A3019 RMK A01 T10071120  RH  042%=      5-min Rain = 0
KAD1 130357Z 15016KT M01/M12 A3019 RMK A01 T10071120  RH  042%=      5-min Rain = 0
KAD1 130358Z 16017KT M01/M12 A3019 RMK A01 T10071120  RH  042%=      5-min Rain = 0
KAD1 130359Z 15017KT M01/M12 A3019 RMK A01 T10071120  RH  042%=      5-min Rain = 0
KAD1 130400Z 15018KT M01/M12 A3019 RMK A01 T10071120  RH  042%=      5-min Rain = 0
KAD1 130401Z 16019KT M01/M12 A3019 RMK A01 T10071120  RH  042%=      5-min Rain = 0
KAD1 130402Z 16019KT M01/M12 A3019 RMK A01 T10071120  RH  042%=      5-min Rain = 0
KAD1 130403Z 16019KT M01/M12 A3019 RMK A01 T10071119  RH  042%=      5-min Rain = 0
KAD1 130404Z 16020KT M01/M12 A3019 RMK A01 T10071120  RH  042%=      5-min Rain = 0
KAD1 130405Z 16020KT M01/M12 A3018 RMK A01 T10071120  RH  042%=      5-min Rain = 0
KAD1 130406Z 16019KT M01/M12 A3018 RMK A01 T10071120  RH  042%=      5-min Rain = 0
KAD1 130407Z 16019KT M01/M12 A3018 RMK A01 T10071119  RH  042%=      5-min Rain = 0
KAD1 130408Z 16018KT M01/M12 A3018 RMK A01 T10071119  RH  042%=      5-min Rain = 0
KAD1 130409Z 16020KT M01/M12 A3018 RMK A01 T10071120  RH  042%=      5-min Rain = 0
KAD1 130410Z 16020KT M01/M12 A3018 RMK A01 T10071120  RH  042%=      5-min Rain = 0
KAD1 130411Z 16020KT M01/M12 A3018 RMK A01 T10081120  RH  042%=      5-min Rain = 0
KAD1 130412Z 16020KT M01/M12 A3018 RMK A01 T10081120  RH  042%=      5-min Rain = 0
KAD1 130413Z 16020KT M01/M12 A3018 RMK A01 T10071119  RH  042%=      5-min Rain = 0
KAD1 130414Z 16020KT M01/M12 A3018 RMK A01 T10061118  RH  042%=      5-min Rain = 0
KAD1 130415Z 16022KT M01/M12 A3017 RMK A01 T10051118  RH  042%=      5-min Rain = 0
KAD1 130416Z 16020KT M00/M12 A3017 RMK A01 T10031118  RH  042%=      5-min Rain = 0
KAD1 130417Z 16020KT M00/M12 A3017 RMK A01 T10031118  RH  041%=      5-min Rain = 0
KAD1 130418Z 16021KT M00/M12 A3017 RMK A01 T10021118  RH  041%=      5-min Rain = 0
KAD1 130419Z 16019KT M00/M12 A3017 RMK A01 T10021118  RH  041%=      5-min Rain = 0
KAD1 130420Z 16021KT M00/M12 A3017 RMK A01 T10031119  RH  041%=      5-min Rain = 0
KAD1 130421Z 16019KT M00/M12 A3018 RMK A01 T10031119  RH  041%=      5-min Rain = 0
KAD1 130422Z 16019KT M00/M12 A3017 RMK A01 T10041119  RH  041%=      5-min Rain = 0
KAD1 130423Z 16019KT M00/M12 A3017 RMK A01 T10041119  RH  042%=      5-min Rain = 0
KAD1 130424Z 16019KT M01/M12 A3018 RMK A01 T10051119  RH  042%=      5-min Rain = 0
KAD1 130425Z 16019KT M01/M12 A3018 RMK A01 T10061120  RH  042%=      5-min Rain = 0
KAD1 130426Z 16019KT M01/M12 A3018 RMK A01 T10061120  RH  042%=      5-min Rain = 0
KAD1 130427Z 16019KT M01/M12 A3018 RMK A01 T10071120  RH  042%=      5-min Rain = 0
KAD1 130428Z 16019KT M01/M12 A3018 RMK A01 T10071119  RH  042%=      5-min Rain = 0
KAD1 130429Z 16018KT M01/M12 A3018 RMK A01 T10061119  RH  042%=      5-min Rain = 0
KAD1 130430Z 15017KT M01/M12 A3018 RMK A01 T10061119  RH  042%=      5-min Rain = 0
KAD1 130431Z 16017KT M01/M12 A3018 RMK A01 T10071119  RH  042%=      5-min Rain = 0
KAD1 130432Z 15016KT M01/M12 A3018 RMK A01 T10081119  RH  042%=      5-min Rain = 0
KAD1 130433Z 16016KT M01/M12 A3018 RMK A01 T10081119  RH  043%=      5-min Rain = 0
KAD1 130434Z 15015KT M01/M12 A3019 RMK A01 T10081119  RH  043%=      5-min Rain = 0
KAD1 130435Z 15014KT M01/M12 A3019 RMK A01 T10091119  RH  043%=      5-min Rain = 0
KAD1 130436Z 16014KT M01/M12 A3019 RMK A01 T10091120  RH  043%=      5-min Rain = 0
KAD1 130437Z 15013KT M01/M12 A3019 RMK A01 T10101120  RH  043%=      5-min Rain = 0
KAD1 130438Z 15012KT M01/M12 A3019 RMK A01 T10101119  RH  043%=      5-min Rain = 0
KAD1 130439Z 15012KT M01/M12 A3019 RMK A01 T10101119  RH  043%=      5-min Rain = 0
KAD1 130440Z 16012KT M01/M12 A302 RMK A01 T10101119  RH  043%=      5-min Rain = 0
KAD1 130441Z 15011KT M01/M12 A302 RMK A01 T10101119  RH  043%=      5-min Rain = 0
KAD1 130442Z 15011KT M01/M12 A302 RMK A01 T10101119  RH  043%=      5-min Rain = 0
KAD1 130443Z 15010KT M01/M12 A302 RMK A01 T10101119  RH  043%=      5-min Rain = 0
KAD1 130444Z 15010KT M01/M12 A302 RMK A01 T10101119  RH  044%=      5-min Rain = 0
KAD1 130445Z 15009KT M01/M12 A302 RMK A01 T10101119  RH  043%=      5-min Rain = 0
KAD1 130446Z 14007KT M01/M12 A302 RMK A01 T10101119  RH  044%=      5-min Rain = 0
KAD1 130447Z 14007KT M01/M12 A302 RMK A01 T10111120  RH  043%=      5-min Rain = 0
KAD1 130448Z 14008KT M01/M12 A302 RMK A01 T10111120  RH  044%=      5-min Rain = 0
KAD1 130449Z 13007KT M01/M12 A302 RMK A01 T10111119  RH  044%=      5-min Rain = 0
KAD1 130450Z 13006KT M01/M12 A3021 RMK A01 T10101119  RH  044%=      5-min Rain = 0
KAD1 130451Z 13006KT M01/M12 A3021 RMK A01 T10101119  RH  044%=      5-min Rain = 0
KAD1 130452Z 12005KT M01/M12 A3021 RMK A01 T10101119  RH  043%=      5-min Rain = 0
KAD1 130453Z 13005KT M01/M12 A3021 RMK A01 T10101119  RH  043%=      5-min Rain = 0
KAD1 130454Z 12005KT M01/M12 A3021 RMK A01 T10101119  RH  043%=      5-min Rain = 0
KAD1 130455Z 12005KT M01/M12 A3021 RMK A01 T10101119  RH  043%=      5-min Rain = 0
KAD1 130456Z 12005KT M01/M12 A3021 RMK A01 T10111120  RH  043%=      5-min Rain = 0
KAD1 130457Z 11004KT M01/M12 A3021 RMK A01 T10131121  RH  044%=      5-min Rain = 0
KAD1 130458Z 11004KT M01/M12 A3021 RMK A01 T10131120  RH  044%=      5-min Rain = 0
KAD1 130459Z 11005KT M01/M12 A3021 RMK A01 T10131120  RH  044%=      5-min Rain = 0
KAD1 130500Z 12005KT M01/M12 A3021 RMK A01 T10141121  RH  044%=      5-min Rain = 0
KAD1 130501Z 12004KT M02/M12 A3021 RMK A01 T10151121  RH  044%=      5-min Rain = 0
KAD1 130502Z 13005KT M02/M12 A3021 RMK A01 T10151121  RH  044%=      5-min Rain = 0
KAD1 130503Z 13005KT M02/M12 A3021 RMK A01 T10151120  RH  045%=      5-min Rain = 0
KAD1 130504Z 14006KT M01/M12 A3021 RMK A01 T10131118  RH  045%=      5-min Rain = 0
KAD1 130505Z 14006KT M01/M12 A3021 RMK A01 T10111118  RH  044%=      5-min Rain = 0
KAD1 130506Z 14007KT M01/M12 A3021 RMK A01 T10111118  RH  044%=      5-min Rain = 0
KAD1 130507Z 15008KT M01/M12 A3021 RMK A01 T10111118  RH  044%=      5-min Rain = 0
KAD1 130508Z 15008KT M01/M12 A3021 RMK A01 T10111118  RH  044%=      5-min Rain = 0
KAD1 130509Z 15007KT M01/M12 A3021 RMK A01 T10101117  RH  044%=      5-min Rain = 0
KAD1 130510Z 16006KT M01/M12 A3021 RMK A01 T10101118  RH  044%=      5-min Rain = 0
KAD1 130511Z 17008KT M01/M12 A3021 RMK A01 T10111119  RH  044%=      5-min Rain = 0
KAD1 130512Z 17007KT M01/M12 A3021 RMK A01 T10111118  RH  044%=      5-min Rain = 0
KAD1 130513Z 17008KT M01/M12 A3021 RMK A01 T10111118  RH  044%=      5-min Rain = 0
KAD1 130514Z 17008KT M01/M12 A3021 RMK A01 T10121119  RH  044%=      5-min Rain = 0
KAD1 130515Z 17008KT M01/M12 A3021 RMK A01 T10131119  RH  044%=      5-min Rain = 0
KAD1 130516Z 16010KT M01/M12 A3021 RMK A01 T10141119  RH  045%=      5-min Rain = 0
KAD1 130517Z 17010KT M01/M12 A3021 RMK A01 T10131118  RH  045%=      5-min Rain = 0
KAD1 130518Z 16010KT M01/M12 A3021 RMK A01 T10131117  RH  045%=      5-min Rain = 0
KAD1 130519Z 16010KT M01/M12 A3021 RMK A01 T10121117  RH  045%=      5-min Rain = 0
KAD1 130520Z 16012KT M01/M12 A3021 RMK A01 T10121118  RH  045%=      5-min Rain = 0
KAD1 130521Z 16012KT M01/M12 A3021 RMK A01 T10121117  RH  045%=      5-min Rain = 0
KAD1 130522Z 16012KT M01/M12 A3021 RMK A01 T10111116  RH  045%=      5-min Rain = 0
KAD1 130523Z 16012KT M01/M12 A3021 RMK A01 T10111116  RH  045%=      5-min Rain = 0
KAD1 130524Z 16013KT M01/M12 A3021 RMK A01 T10121117  RH  045%=      5-min Rain = 0
KAD1 130525Z 16015KT M01/M12 A3021 RMK A01 T10121117  RH  045%=      5-min Rain = 0
KAD1 130526Z 16014KT M01/M12 A3021 RMK A01 T10121117  RH  045%=      5-min Rain = 0
KAD1 130527Z 16015KT M01/M12 A3021 RMK A01 T10121116  RH  045%=      5-min Rain = 0
KAD1 130528Z 16017KT M01/M12 A302 RMK A01 T10111116  RH  045%=      5-min Rain = 0
KAD1 130529Z 16015KT M01/M12 A302 RMK A01 T10111116  RH  045%=      5-min Rain = 0
KAD1 130530Z 16016KT M01/M12 A302 RMK A01 T10111116  RH  045%=      5-min Rain = 0
KAD1 130531Z 16018KT M01/M12 A302 RMK A01 T10111116  RH  045%=      5-min Rain = 0
KAD1 130532Z 16017KT M01/M12 A302 RMK A01 T10111116  RH  045%=      5-min Rain = 0
KAD1 130533Z 16015KT M01/M12 A302 RMK A01 T10111116  RH  045%=      5-min Rain = 0
KAD1 130534Z 16016KT M01/M12 A302 RMK A01 T10121117  RH  045%=      5-min Rain = 0
KAD1 130535Z 16017KT M01/M12 A302 RMK A01 T10121116  RH  045%=      5-min Rain = 0
KAD1 130536Z 16016KT M01/M12 A302 RMK A01 T10131117  RH  045%=      5-min Rain = 0
KAD1 130537Z 16016KT M01/M12 A302 RMK A01 T10131116  RH  045%=      5-min Rain = 0
KAD1 130538Z 16016KT M01/M12 A302 RMK A01 T10141117  RH  045%=      5-min Rain = 0
KAD1 130539Z 16017KT M01/M12 A302 RMK A01 T10141116  RH  046%=      5-min Rain = 0
KAD1 130540Z 16017KT M01/M12 A302 RMK A01 T10141116  RH  046%=      5-min Rain = 0
KAD1 130541Z 16016KT M01/M12 A302 RMK A01 T10141116  RH  046%=      5-min Rain = 0
KAD1 130542Z 16016KT M01/M12 A302 RMK A01 T10141116  RH  046%=      5-min Rain = 0
KAD1 130543Z 16015KT M01/M12 A302 RMK A01 T10141116  RH  046%=      5-min Rain = 0
KAD1 130544Z 16015KT M02/M12 A302 RMK A01 T10151116  RH  046%=      5-min Rain = 0
KAD1 130545Z 16014KT M02/M12 A3021 RMK A01 T10151117  RH  046%=      5-min Rain = 0
KAD1 130546Z 15014KT M02/M12 A3021 RMK A01 T10161117  RH  046%=      5-min Rain = 0
KAD1 130547Z 15015KT M02/M12 A302 RMK A01 T10171118  RH  046%=      5-min Rain = 0
KAD1 130548Z 15014KT M02/M12 A3021 RMK A01 T10171117  RH  046%=      5-min Rain = 0
KAD1 130549Z 15014KT M02/M12 A3021 RMK A01 T10171117  RH  046%=      5-min Rain = 0
KAD1 130550Z 15013KT M02/M12 A3021 RMK A01 T10171117  RH  046%=      5-min Rain = 0
KAD1 130551Z 15014KT M02/M12 A3021 RMK A01 T10181118  RH  047%=      5-min Rain = 0
KAD1 130552Z 15014KT M02/M12 A3021 RMK A01 T10191118  RH  047%=      5-min Rain = 0
KAD1 130553Z 15013KT M02/M12 A3021 RMK A01 T10191118  RH  047%=      5-min Rain = 0
KAD1 130554Z 15014KT M02/M12 A3021 RMK A01 T10191117  RH  047%=      5-min Rain = 0
KAD1 130555Z 15013KT M02/M12 A3021 RMK A01 T10191117  RH  047%=      5-min Rain = 0
KAD1 130556Z 15013KT M02/M12 A3021 RMK A01 T10191117  RH  047%=      5-min Rain = 0
KAD1 130557Z 15013KT M02/M12 A3021 RMK A01 T10191117  RH  047%=      5-min Rain = 0
KAD1 130558Z 15014KT M02/M12 A3021 RMK A01 T10191117  RH  047%=      5-min Rain = 0
KAD1 130559Z 16012KT M02/M12 A3021 RMK A01 T10191116  RH  047%=      5-min Rain = 0

Page generated in 0.1276 seconds.